<?xml version='1.0' encoding='UTF-8'?><gpx version="1.1" creator="JPX - https://github.com/jenetics/jpx" xmlns="http://www.topografix.com/GPX/1/1"><trk><trkseg><trkpt lat="45.6316868" lon="11.5450722"><ele>51.0</ele><time>2026-04-06T09:57:37.925Z</time></trkpt><trkpt lat="45.6317306" lon="11.5449935"><ele>51.0</ele><time>2026-04-06T09:57:39.923Z</time></trkpt><trkpt lat="45.6317587" lon="11.5449115"><ele>51.0</ele><time>2026-04-06T09:57:41.945Z</time></trkpt><trkpt lat="45.6317619" lon="11.5448205"><ele>51.0</ele><time>2026-04-06T09:57:43.918Z</time></trkpt><trkpt lat="45.6318023" lon="11.5448953"><ele>51.0</ele><time>2026-04-06T09:58:06.928Z</time></trkpt><trkpt lat="45.6318198" lon="11.544997"><ele>51.0</ele><time>2026-04-06T09:58:13.927Z</time></trkpt><trkpt lat="45.6317431" lon="11.5451615"><ele>51.0</ele><time>2026-04-06T09:58:19.928Z</time></trkpt><trkpt lat="45.6317474" lon="11.5452668"><ele>51.0</ele><time>2026-04-06T09:58:30.928Z</time></trkpt><trkpt lat="45.631655" lon="11.5452591"><ele>51.0</ele><time>2026-04-06T09:58:48.931Z</time></trkpt><trkpt lat="45.6315768" lon="11.5452517"><ele>51.0</ele><time>2026-04-06T09:58:50.929Z</time></trkpt><trkpt lat="45.6315093" lon="11.5452064"><ele>51.0</ele><time>2026-04-06T09:58:53.928Z</time></trkpt><trkpt lat="45.6314692" lon="11.5451043"><ele>51.0</ele><time>2026-04-06T09:58:58.929Z</time></trkpt><trkpt lat="45.6314852" lon="11.5449832"><ele>51.0</ele><time>2026-04-06T09:59:01.931Z</time></trkpt><trkpt lat="45.6314915" lon="11.5448804"><ele>51.0</ele><time>2026-04-06T09:59:04.929Z</time></trkpt><trkpt lat="45.6314531" lon="11.5447952"><ele>51.0</ele><time>2026-04-06T09:59:12.926Z</time></trkpt><trkpt lat="45.6314322" lon="11.5448862"><ele>51.0</ele><time>2026-04-06T09:59:16.927Z</time></trkpt><trkpt lat="45.6314429" lon="11.5449853"><ele>51.0</ele><time>2026-04-06T09:59:21.927Z</time></trkpt><trkpt lat="45.6314556" lon="11.5448955"><ele>51.0</ele><time>2026-04-06T09:59:52.929Z</time></trkpt><trkpt lat="45.6314355" lon="11.5448099"><ele>51.0</ele><time>2026-04-06T10:01:27.93Z</time></trkpt><trkpt lat="45.6314951" lon="11.54472"><ele>51.0</ele><time>2026-04-06T10:01:41.928Z</time></trkpt><trkpt lat="45.6315241" lon="11.5446236"><ele>51.0</ele><time>2026-04-06T10:01:44.931Z</time></trkpt><trkpt lat="45.6315238" lon="11.5445077"><ele>51.0</ele><time>2026-04-06T10:01:47.927Z</time></trkpt><trkpt lat="45.6315254" lon="11.5443996"><ele>51.0</ele><time>2026-04-06T10:01:50.928Z</time></trkpt><trkpt lat="45.6315385" lon="11.5442926"><ele>51.0</ele><time>2026-04-06T10:01:53.93Z</time></trkpt><trkpt lat="45.6315532" lon="11.5441914"><ele>51.0</ele><time>2026-04-06T10:01:56.929Z</time></trkpt><trkpt lat="45.6315532" lon="11.5440945"><ele>51.0</ele><time>2026-04-06T10:01:59.93Z</time></trkpt><trkpt lat="45.6315677" lon="11.5439964"><ele>50.85714285714286</ele><time>2026-04-06T10:02:02.931Z</time></trkpt><trkpt lat="45.6315752" lon="11.5439035"><ele>50.714285714285715</ele><time>2026-04-06T10:02:05.931Z</time></trkpt><trkpt lat="45.6315677" lon="11.5438104"><ele>50.57142857142857</ele><time>2026-04-06T10:02:09.929Z</time></trkpt><trkpt lat="45.6315696" lon="11.5437052"><ele>50.42857142857143</ele><time>2026-04-06T10:02:14.925Z</time></trkpt><trkpt lat="45.6315723" lon="11.5435986"><ele>50.285714285714285</ele><time>2026-04-06T10:02:34.923Z</time></trkpt><trkpt lat="45.6315652" lon="11.5435081"><ele>50.142857142857146</ele><time>2026-04-06T10:02:37.926Z</time></trkpt><trkpt lat="45.6315487" lon="11.5434135"><ele>50.0</ele><time>2026-04-06T10:02:40.924Z</time></trkpt><trkpt lat="45.6315235" lon="11.5433174"><ele>50.00000000000001</ele><time>2026-04-06T10:02:45.928Z</time></trkpt><trkpt lat="45.631489" lon="11.5431971"><ele>50.0</ele><time>2026-04-06T10:02:49.923Z</time></trkpt><trkpt lat="45.631451" lon="11.5431214"><ele>50.0</ele><time>2026-04-06T10:02:52.928Z</time></trkpt><trkpt lat="45.6314472" lon="11.5430192"><ele>50.0</ele><time>2026-04-06T10:02:56.928Z</time></trkpt><trkpt lat="45.6314338" lon="11.5429148"><ele>50.00000000000001</ele><time>2026-04-06T10:03:01.927Z</time></trkpt><trkpt lat="45.6314424" lon="11.542818"><ele>50.0</ele><time>2026-04-06T10:03:04.927Z</time></trkpt><trkpt lat="45.6314504" lon="11.5427038"><ele>50.00000000000001</ele><time>2026-04-06T10:03:07.929Z</time></trkpt><trkpt lat="45.6314507" lon="11.5425944"><ele>50.0</ele><time>2026-04-06T10:03:10.928Z</time></trkpt><trkpt lat="45.6314405" lon="11.5424686"><ele>50.0</ele><time>2026-04-06T10:03:13.927Z</time></trkpt><trkpt lat="45.6314359" lon="11.5423588"><ele>50.0</ele><time>2026-04-06T10:03:16.928Z</time></trkpt><trkpt lat="45.6314309" lon="11.542256"><ele>50.00000000000001</ele><time>2026-04-06T10:03:19.927Z</time></trkpt><trkpt lat="45.6314195" lon="11.5421397"><ele>50.0</ele><time>2026-04-06T10:03:22.927Z</time></trkpt><trkpt lat="45.6313959" lon="11.5420073"><ele>50.00000000000001</ele><time>2026-04-06T10:03:25.932Z</time></trkpt><trkpt lat="45.6313836" lon="11.5419068"><ele>50.0</ele><time>2026-04-06T10:03:28.925Z</time></trkpt><trkpt lat="45.6313633" lon="11.5418203"><ele>50.0</ele><time>2026-04-06T10:03:31.929Z</time></trkpt><trkpt lat="45.6313606" lon="11.5417139"><ele>50.0</ele><time>2026-04-06T10:03:34.931Z</time></trkpt><trkpt lat="45.6313644" lon="11.5416149"><ele>50.0</ele><time>2026-04-06T10:03:36.925Z</time></trkpt><trkpt lat="45.6313568" lon="11.5415167"><ele>50.00000000000001</ele><time>2026-04-06T10:03:38.93Z</time></trkpt><trkpt lat="45.6313452" lon="11.5414191"><ele>50.0</ele><time>2026-04-06T10:03:40.929Z</time></trkpt><trkpt lat="45.6313428" lon="11.541308"><ele>50.142857142857146</ele><time>2026-04-06T10:03:43.928Z</time></trkpt><trkpt lat="45.6313356" lon="11.5411865"><ele>50.285714285714285</ele><time>2026-04-06T10:03:46.929Z</time></trkpt><trkpt lat="45.6313274" lon="11.541095"><ele>50.42857142857143</ele><time>2026-04-06T10:03:48.925Z</time></trkpt><trkpt lat="45.6313226" lon="11.5410003"><ele>50.57142857142857</ele><time>2026-04-06T10:03:50.93Z</time></trkpt><trkpt lat="45.6313226" lon="11.540893"><ele>50.714285714285715</ele><time>2026-04-06T10:03:53.928Z</time></trkpt><trkpt lat="45.631317" lon="11.5407831"><ele>50.85714285714286</ele><time>2026-04-06T10:03:56.93Z</time></trkpt><trkpt lat="45.631321" lon="11.5406717"><ele>51.0</ele><time>2026-04-06T10:03:59.929Z</time></trkpt><trkpt lat="45.6313245" lon="11.5405457"><ele>51.0</ele><time>2026-04-06T10:04:02.93Z</time></trkpt><trkpt lat="45.6313153" lon="11.5404173"><ele>51.0</ele><time>2026-04-06T10:04:05.93Z</time></trkpt><trkpt lat="45.6313115" lon="11.5402908"><ele>51.0</ele><time>2026-04-06T10:04:08.931Z</time></trkpt><trkpt lat="45.6313001" lon="11.5401821"><ele>51.0</ele><time>2026-04-06T10:04:11.929Z</time></trkpt><trkpt lat="45.6313091" lon="11.5400666"><ele>51.0</ele><time>2026-04-06T10:04:14.931Z</time></trkpt><trkpt lat="45.6313268" lon="11.539943"><ele>51.0</ele><time>2026-04-06T10:04:17.929Z</time></trkpt><trkpt lat="45.6313329" lon="11.539819"><ele>51.166666666666664</ele><time>2026-04-06T10:04:20.929Z</time></trkpt><trkpt lat="45.6313408" lon="11.5397291"><ele>51.33333333333333</ele><time>2026-04-06T10:04:22.928Z</time></trkpt><trkpt lat="45.6313547" lon="11.5396163"><ele>51.5</ele><time>2026-04-06T10:04:25.928Z</time></trkpt><trkpt lat="45.6313814" lon="11.5395118"><ele>51.666666666666664</ele><time>2026-04-06T10:04:28.927Z</time></trkpt><trkpt lat="45.6314067" lon="11.5393899"><ele>51.83333333333333</ele><time>2026-04-06T10:04:31.924Z</time></trkpt><trkpt lat="45.6314382" lon="11.53926"><ele>52.0</ele><time>2026-04-06T10:04:34.93Z</time></trkpt><trkpt lat="45.6314609" lon="11.5391729"><ele>51.666666666666664</ele><time>2026-04-06T10:04:36.931Z</time></trkpt><trkpt lat="45.6314835" lon="11.5390484"><ele>51.33333333333333</ele><time>2026-04-06T10:04:39.929Z</time></trkpt><trkpt lat="45.6315064" lon="11.5389396"><ele>51.0</ele><time>2026-04-06T10:04:42.93Z</time></trkpt><trkpt lat="45.6315078" lon="11.5388258"><ele>50.66666666666667</ele><time>2026-04-06T10:04:45.929Z</time></trkpt><trkpt lat="45.631493" lon="11.5387009"><ele>50.333333333333336</ele><time>2026-04-06T10:04:48.93Z</time></trkpt><trkpt lat="45.6314387" lon="11.5386068"><ele>50.0</ele><time>2026-04-06T10:04:51.929Z</time></trkpt><trkpt lat="45.6313748" lon="11.5385356"><ele>50.00000000000001</ele><time>2026-04-06T10:04:54.928Z</time></trkpt><trkpt lat="45.6312947" lon="11.5384723"><ele>50.0</ele><time>2026-04-06T10:04:57.932Z</time></trkpt><trkpt lat="45.6312179" lon="11.5384099"><ele>50.0</ele><time>2026-04-06T10:05:00.929Z</time></trkpt><trkpt lat="45.6311493" lon="11.5383679"><ele>50.0</ele><time>2026-04-06T10:05:03.93Z</time></trkpt><trkpt lat="45.6310915" lon="11.5383139"><ele>50.00000000000001</ele><time>2026-04-06T10:05:06.931Z</time></trkpt><trkpt lat="45.6310217" lon="11.5382417"><ele>50.0</ele><time>2026-04-06T10:05:09.931Z</time></trkpt><trkpt lat="45.6309614" lon="11.5381705"><ele>50.00000000000001</ele><time>2026-04-06T10:05:12.932Z</time></trkpt><trkpt lat="45.6309058" lon="11.5380879"><ele>50.0</ele><time>2026-04-06T10:05:15.928Z</time></trkpt><trkpt lat="45.6308607" lon="11.5379794"><ele>50.0</ele><time>2026-04-06T10:05:18.927Z</time></trkpt><trkpt lat="45.6308254" lon="11.5378785"><ele>50.0</ele><time>2026-04-06T10:05:21.928Z</time></trkpt><trkpt lat="45.6308028" lon="11.537767"><ele>50.00000000000001</ele><time>2026-04-06T10:05:24.928Z</time></trkpt><trkpt lat="45.6307844" lon="11.5376531"><ele>50.0</ele><time>2026-04-06T10:05:27.93Z</time></trkpt><trkpt lat="45.6307783" lon="11.5375275"><ele>50.00000000000001</ele><time>2026-04-06T10:05:30.93Z</time></trkpt><trkpt lat="45.6307905" lon="11.5374229"><ele>50.0</ele><time>2026-04-06T10:05:33.928Z</time></trkpt><trkpt lat="45.6307839" lon="11.537312"><ele>50.0</ele><time>2026-04-06T10:05:36.931Z</time></trkpt><trkpt lat="45.630777" lon="11.5372049"><ele>50.0</ele><time>2026-04-06T10:05:39.93Z</time></trkpt><trkpt lat="45.6307718" lon="11.5370871"><ele>50.00000000000001</ele><time>2026-04-06T10:05:42.93Z</time></trkpt><trkpt lat="45.6307649" lon="11.5369659"><ele>50.0</ele><time>2026-04-06T10:05:45.926Z</time></trkpt><trkpt lat="45.6307551" lon="11.5368551"><ele>50.00000000000001</ele><time>2026-04-06T10:05:48.932Z</time></trkpt><trkpt lat="45.6307397" lon="11.5367512"><ele>50.0</ele><time>2026-04-06T10:05:51.93Z</time></trkpt><trkpt lat="45.6307026" lon="11.5366447"><ele>50.0</ele><time>2026-04-06T10:05:54.93Z</time></trkpt><trkpt lat="45.6306593" lon="11.5365291"><ele>50.0</ele><time>2026-04-06T10:05:57.93Z</time></trkpt><trkpt lat="45.6306254" lon="11.5364522"><ele>50.00000000000001</ele><time>2026-04-06T10:05:59.923Z</time></trkpt><trkpt lat="45.6305677" lon="11.5363461"><ele>50.0</ele><time>2026-04-06T10:06:02.927Z</time></trkpt><trkpt lat="45.6305305" lon="11.5362709"><ele>50.00000000000001</ele><time>2026-04-06T10:06:04.927Z</time></trkpt><trkpt lat="45.630481" lon="11.5361655"><ele>50.0</ele><time>2026-04-06T10:06:07.928Z</time></trkpt><trkpt lat="45.6304357" lon="11.5360635"><ele>50.0</ele><time>2026-04-06T10:06:10.926Z</time></trkpt><trkpt lat="45.6303694" lon="11.5359843"><ele>50.0</ele><time>2026-04-06T10:06:13.93Z</time></trkpt><trkpt lat="45.6303095" lon="11.5359011"><ele>50.00000000000001</ele><time>2026-04-06T10:06:16.931Z</time></trkpt><trkpt lat="45.6302496" lon="11.5358121"><ele>50.0</ele><time>2026-04-06T10:06:19.929Z</time></trkpt><trkpt lat="45.6302065" lon="11.5357329"><ele>49.85714285714286</ele><time>2026-04-06T10:06:22.93Z</time></trkpt><trkpt lat="45.6301672" lon="11.5356169"><ele>49.714285714285715</ele><time>2026-04-06T10:06:25.93Z</time></trkpt><trkpt lat="45.6301454" lon="11.535522"><ele>49.57142857142857</ele><time>2026-04-06T10:06:27.931Z</time></trkpt><trkpt lat="45.6301275" lon="11.5354029"><ele>49.42857142857143</ele><time>2026-04-06T10:06:30.931Z</time></trkpt><trkpt lat="45.6301159" lon="11.5353089"><ele>49.285714285714285</ele><time>2026-04-06T10:06:33.932Z</time></trkpt><trkpt lat="45.6300781" lon="11.5352291"><ele>49.142857142857146</ele><time>2026-04-06T10:07:44.927Z</time></trkpt><trkpt lat="45.6300464" lon="11.5351399"><ele>49.0</ele><time>2026-04-06T10:07:48.933Z</time></trkpt><trkpt lat="45.6300282" lon="11.5350515"><ele>49.0</ele><time>2026-04-06T10:07:51.929Z</time></trkpt><trkpt lat="45.6300041" lon="11.5349294"><ele>49.0</ele><time>2026-04-06T10:07:55.93Z</time></trkpt><trkpt lat="45.6299772" lon="11.5348371"><ele>49.0</ele><time>2026-04-06T10:07:58.93Z</time></trkpt><trkpt lat="45.6299678" lon="11.5347182"><ele>49.0</ele><time>2026-04-06T10:08:02.929Z</time></trkpt><trkpt lat="45.6299637" lon="11.5346265"><ele>49.0</ele><time>2026-04-06T10:08:05.928Z</time></trkpt><trkpt lat="45.629956" lon="11.5345281"><ele>49.0</ele><time>2026-04-06T10:08:08.927Z</time></trkpt><trkpt lat="45.6299634" lon="11.5344335"><ele>49.0</ele><time>2026-04-06T10:08:11.932Z</time></trkpt><trkpt lat="45.6299633" lon="11.5343396"><ele>48.99999999999999</ele><time>2026-04-06T10:08:14.924Z</time></trkpt><trkpt lat="45.6299458" lon="11.5342308"><ele>49.0</ele><time>2026-04-06T10:08:18.928Z</time></trkpt><trkpt lat="45.6299256" lon="11.5341348"><ele>49.0</ele><time>2026-04-06T10:08:21.928Z</time></trkpt><trkpt lat="45.6299129" lon="11.5339986"><ele>49.0</ele><time>2026-04-06T10:08:24.928Z</time></trkpt><trkpt lat="45.6299092" lon="11.5339038"><ele>48.99999999999999</ele><time>2026-04-06T10:08:26.929Z</time></trkpt><trkpt lat="45.6299098" lon="11.533811"><ele>49.0</ele><time>2026-04-06T10:08:28.929Z</time></trkpt><trkpt lat="45.6299065" lon="11.5336865"><ele>49.166666666666664</ele><time>2026-04-06T10:08:31.929Z</time></trkpt><trkpt lat="45.6299205" lon="11.5335765"><ele>49.33333333333333</ele><time>2026-04-06T10:08:34.928Z</time></trkpt><trkpt lat="45.6299348" lon="11.5334883"><ele>49.5</ele><time>2026-04-06T10:08:36.928Z</time></trkpt><trkpt lat="45.6299531" lon="11.5333905"><ele>49.66666666666667</ele><time>2026-04-06T10:08:38.929Z</time></trkpt><trkpt lat="45.6299509" lon="11.5332511"><ele>49.833333333333336</ele><time>2026-04-06T10:08:41.93Z</time></trkpt><trkpt lat="45.629924" lon="11.5331603"><ele>50.0</ele><time>2026-04-06T10:08:43.929Z</time></trkpt><trkpt lat="45.6298694" lon="11.5330781"><ele>50.00000000000001</ele><time>2026-04-06T10:08:45.929Z</time></trkpt><trkpt lat="45.6297892" lon="11.5330109"><ele>50.0</ele><time>2026-04-06T10:08:48.93Z</time></trkpt><trkpt lat="45.6297065" lon="11.5329844"><ele>50.0</ele><time>2026-04-06T10:08:51.932Z</time></trkpt><trkpt lat="45.6296254" lon="11.5329976"><ele>50.0</ele><time>2026-04-06T10:08:54.93Z</time></trkpt><trkpt lat="45.6295661" lon="11.5330332"><ele>50.00000000000001</ele><time>2026-04-06T10:08:56.928Z</time></trkpt><trkpt lat="45.6295051" lon="11.5330702"><ele>50.0</ele><time>2026-04-06T10:08:58.929Z</time></trkpt><trkpt lat="45.629411" lon="11.5331152"><ele>49.85714285714286</ele><time>2026-04-06T10:09:01.928Z</time></trkpt><trkpt lat="45.629324" lon="11.5331356"><ele>49.714285714285715</ele><time>2026-04-06T10:09:04.93Z</time></trkpt><trkpt lat="45.6292518" lon="11.533157"><ele>49.57142857142857</ele><time>2026-04-06T10:09:06.929Z</time></trkpt><trkpt lat="45.6291841" lon="11.5331785"><ele>49.42857142857143</ele><time>2026-04-06T10:09:08.929Z</time></trkpt><trkpt lat="45.6291207" lon="11.5331913"><ele>49.285714285714285</ele><time>2026-04-06T10:09:10.929Z</time></trkpt><trkpt lat="45.6290528" lon="11.5332261"><ele>49.142857142857146</ele><time>2026-04-06T10:09:12.928Z</time></trkpt><trkpt lat="45.628987" lon="11.5332613"><ele>49.0</ele><time>2026-04-06T10:09:14.929Z</time></trkpt><trkpt lat="45.6289108" lon="11.5332727"><ele>48.99999999999999</ele><time>2026-04-06T10:09:16.929Z</time></trkpt><trkpt lat="45.6288259" lon="11.5332865"><ele>49.0</ele><time>2026-04-06T10:09:18.929Z</time></trkpt><trkpt lat="45.6287436" lon="11.5332967"><ele>49.0</ele><time>2026-04-06T10:09:20.93Z</time></trkpt><trkpt lat="45.6286578" lon="11.5332994"><ele>49.0</ele><time>2026-04-06T10:09:22.93Z</time></trkpt><trkpt lat="45.6285762" lon="11.5333157"><ele>48.99999999999999</ele><time>2026-04-06T10:09:24.928Z</time></trkpt><trkpt lat="45.6284961" lon="11.5333316"><ele>49.0</ele><time>2026-04-06T10:09:26.927Z</time></trkpt><trkpt lat="45.6284203" lon="11.533355"><ele>48.714285714285715</ele><time>2026-04-06T10:09:28.927Z</time></trkpt><trkpt lat="45.6283507" lon="11.5333776"><ele>48.42857142857143</ele><time>2026-04-06T10:09:30.93Z</time></trkpt><trkpt lat="45.6282804" lon="11.5334048"><ele>48.14285714285714</ele><time>2026-04-06T10:09:32.931Z</time></trkpt><trkpt lat="45.6282157" lon="11.5334106"><ele>47.85714285714286</ele><time>2026-04-06T10:09:34.93Z</time></trkpt><trkpt lat="45.6281428" lon="11.5334194"><ele>47.57142857142857</ele><time>2026-04-06T10:09:36.931Z</time></trkpt><trkpt lat="45.628069" lon="11.5334409"><ele>47.285714285714285</ele><time>2026-04-06T10:09:38.93Z</time></trkpt><trkpt lat="45.6279961" lon="11.5334657"><ele>47.0</ele><time>2026-04-06T10:09:40.928Z</time></trkpt><trkpt lat="45.6279323" lon="11.5334852"><ele>47.0</ele><time>2026-04-06T10:09:42.929Z</time></trkpt><trkpt lat="45.6278615" lon="11.5334976"><ele>47.0</ele><time>2026-04-06T10:09:44.93Z</time></trkpt><trkpt lat="45.627767" lon="11.5335108"><ele>47.0</ele><time>2026-04-06T10:09:47.93Z</time></trkpt><trkpt lat="45.6277001" lon="11.5335241"><ele>47.0</ele><time>2026-04-06T10:09:49.928Z</time></trkpt><trkpt lat="45.6276338" lon="11.5335353"><ele>47.0</ele><time>2026-04-06T10:09:51.929Z</time></trkpt><trkpt lat="45.6275467" lon="11.5335413"><ele>47.0</ele><time>2026-04-06T10:09:54.929Z</time></trkpt><trkpt lat="45.6274763" lon="11.5335631"><ele>47.166666666666664</ele><time>2026-04-06T10:09:57.93Z</time></trkpt><trkpt lat="45.6274112" lon="11.5335942"><ele>47.33333333333333</ele><time>2026-04-06T10:10:00.93Z</time></trkpt><trkpt lat="45.6273287" lon="11.5336291"><ele>47.5</ele><time>2026-04-06T10:10:03.93Z</time></trkpt><trkpt lat="45.6272416" lon="11.5336519"><ele>47.666666666666664</ele><time>2026-04-06T10:10:06.93Z</time></trkpt><trkpt lat="45.6271509" lon="11.5336602"><ele>47.833333333333336</ele><time>2026-04-06T10:10:09.931Z</time></trkpt><trkpt lat="45.6270741" lon="11.5336665"><ele>48.0</ele><time>2026-04-06T10:10:12.925Z</time></trkpt><trkpt lat="45.626989" lon="11.5336828"><ele>47.99999999999999</ele><time>2026-04-06T10:10:15.93Z</time></trkpt><trkpt lat="45.6269272" lon="11.5337089"><ele>48.0</ele><time>2026-04-06T10:10:17.925Z</time></trkpt><trkpt lat="45.6268633" lon="11.5337244"><ele>48.0</ele><time>2026-04-06T10:10:19.931Z</time></trkpt><trkpt lat="45.6267976" lon="11.5337408"><ele>48.0</ele><time>2026-04-06T10:10:21.93Z</time></trkpt><trkpt lat="45.6267338" lon="11.5337591"><ele>48.0</ele><time>2026-04-06T10:10:23.925Z</time></trkpt><trkpt lat="45.6266434" lon="11.5337751"><ele>47.99999999999999</ele><time>2026-04-06T10:10:26.93Z</time></trkpt><trkpt lat="45.6265738" lon="11.5337517"><ele>48.0</ele><time>2026-04-06T10:10:29.93Z</time></trkpt><trkpt lat="45.6265724" lon="11.5336426"><ele>48.166666666666664</ele><time>2026-04-06T10:10:32.929Z</time></trkpt><trkpt lat="45.626598" lon="11.5335336"><ele>48.33333333333333</ele><time>2026-04-06T10:10:35.93Z</time></trkpt><trkpt lat="45.6266264" lon="11.5334288"><ele>48.5</ele><time>2026-04-06T10:10:38.923Z</time></trkpt><trkpt lat="45.6266552" lon="11.5333439"><ele>48.666666666666664</ele><time>2026-04-06T10:10:41.927Z</time></trkpt><trkpt lat="45.6266792" lon="11.5332268"><ele>48.83333333333333</ele><time>2026-04-06T10:10:44.927Z</time></trkpt><trkpt lat="45.6266965" lon="11.5331132"><ele>49.0</ele><time>2026-04-06T10:10:47.925Z</time></trkpt><trkpt lat="45.6267062" lon="11.5329997"><ele>48.99999999999999</ele><time>2026-04-06T10:10:51.923Z</time></trkpt><trkpt lat="45.6267235" lon="11.5328904"><ele>49.0</ele><time>2026-04-06T10:10:54.927Z</time></trkpt><trkpt lat="45.6267401" lon="11.5328026"><ele>49.0</ele><time>2026-04-06T10:10:56.93Z</time></trkpt><trkpt lat="45.6267629" lon="11.5327114"><ele>49.0</ele><time>2026-04-06T10:10:58.925Z</time></trkpt><trkpt lat="45.6267769" lon="11.5326186"><ele>48.99999999999999</ele><time>2026-04-06T10:11:00.928Z</time></trkpt><trkpt lat="45.6268068" lon="11.5324941"><ele>49.0</ele><time>2026-04-06T10:11:03.931Z</time></trkpt><trkpt lat="45.6268502" lon="11.5323942"><ele>48.99999999999999</ele><time>2026-04-06T10:11:06.932Z</time></trkpt><trkpt lat="45.6269117" lon="11.5323207"><ele>49.0</ele><time>2026-04-06T10:11:09.928Z</time></trkpt><trkpt lat="45.6269697" lon="11.532249"><ele>49.0</ele><time>2026-04-06T10:11:12.931Z</time></trkpt><trkpt lat="45.6270071" lon="11.5321482"><ele>49.0</ele><time>2026-04-06T10:11:15.929Z</time></trkpt><trkpt lat="45.6270336" lon="11.5320576"><ele>48.99999999999999</ele><time>2026-04-06T10:11:17.928Z</time></trkpt><trkpt lat="45.6270641" lon="11.5319378"><ele>49.0</ele><time>2026-04-06T10:11:20.927Z</time></trkpt><trkpt lat="45.6270874" lon="11.5318243"><ele>48.83333333333333</ele><time>2026-04-06T10:11:23.929Z</time></trkpt><trkpt lat="45.6271151" lon="11.531709"><ele>48.666666666666664</ele><time>2026-04-06T10:11:26.928Z</time></trkpt><trkpt lat="45.6271425" lon="11.5315842"><ele>48.5</ele><time>2026-04-06T10:11:29.927Z</time></trkpt><trkpt lat="45.6271476" lon="11.531481"><ele>48.33333333333333</ele><time>2026-04-06T10:11:32.929Z</time></trkpt><trkpt lat="45.6270907" lon="11.5313881"><ele>48.166666666666664</ele><time>2026-04-06T10:11:35.931Z</time></trkpt><trkpt lat="45.6270379" lon="11.5313349"><ele>48.0</ele><time>2026-04-06T10:11:37.932Z</time></trkpt><trkpt lat="45.6269661" lon="11.5312711"><ele>47.857142857142854</ele><time>2026-04-06T10:11:40.928Z</time></trkpt><trkpt lat="45.6269153" lon="11.5312088"><ele>47.714285714285715</ele><time>2026-04-06T10:11:44.931Z</time></trkpt><trkpt lat="45.62688" lon="11.5311309"><ele>47.57142857142857</ele><time>2026-04-06T10:11:48.931Z</time></trkpt><trkpt lat="45.6269241" lon="11.5310466"><ele>47.42857142857143</ele><time>2026-04-06T10:11:53.93Z</time></trkpt><trkpt lat="45.62695" lon="11.5309502"><ele>47.285714285714285</ele><time>2026-04-06T10:12:00.931Z</time></trkpt><trkpt lat="45.6269995" lon="11.5308573"><ele>47.14285714285714</ele><time>2026-04-06T10:12:05.924Z</time></trkpt><trkpt lat="45.6270469" lon="11.5307774"><ele>47.0</ele><time>2026-04-06T10:12:08.929Z</time></trkpt><trkpt lat="45.6270945" lon="11.530692"><ele>47.0</ele><time>2026-04-06T10:12:11.929Z</time></trkpt><trkpt lat="45.6271488" lon="11.530608"><ele>47.0</ele><time>2026-04-06T10:12:14.93Z</time></trkpt><trkpt lat="45.6271968" lon="11.5305167"><ele>47.0</ele><time>2026-04-06T10:12:17.931Z</time></trkpt><trkpt lat="45.6272427" lon="11.5304407"><ele>47.0</ele><time>2026-04-06T10:12:20.931Z</time></trkpt><trkpt lat="45.6272904" lon="11.5303745"><ele>47.0</ele><time>2026-04-06T10:12:23.93Z</time></trkpt><trkpt lat="45.6273434" lon="11.530293"><ele>47.0</ele><time>2026-04-06T10:12:26.931Z</time></trkpt><trkpt lat="45.6273938" lon="11.5302101"><ele>47.0</ele><time>2026-04-06T10:12:29.93Z</time></trkpt><trkpt lat="45.6274437" lon="11.5301361"><ele>47.0</ele><time>2026-04-06T10:12:32.933Z</time></trkpt><trkpt lat="45.627492" lon="11.5300639"><ele>47.0</ele><time>2026-04-06T10:12:35.931Z</time></trkpt><trkpt lat="45.627546" lon="11.5299838"><ele>47.0</ele><time>2026-04-06T10:12:38.93Z</time></trkpt><trkpt lat="45.6275996" lon="11.5299049"><ele>47.0</ele><time>2026-04-06T10:12:41.928Z</time></trkpt><trkpt lat="45.6276605" lon="11.5298131"><ele>47.0</ele><time>2026-04-06T10:12:44.929Z</time></trkpt><trkpt lat="45.6277134" lon="11.5297338"><ele>47.0</ele><time>2026-04-06T10:12:47.93Z</time></trkpt><trkpt lat="45.627756" lon="11.5296607"><ele>47.0</ele><time>2026-04-06T10:12:50.931Z</time></trkpt><trkpt lat="45.6278048" lon="11.5295887"><ele>47.0</ele><time>2026-04-06T10:12:53.93Z</time></trkpt><trkpt lat="45.627854" lon="11.5295005"><ele>47.0</ele><time>2026-04-06T10:12:56.93Z</time></trkpt><trkpt lat="45.6279012" lon="11.5294326"><ele>47.0</ele><time>2026-04-06T10:12:59.931Z</time></trkpt><trkpt lat="45.6279102" lon="11.5293336"><ele>47.0</ele><time>2026-04-06T10:13:03.931Z</time></trkpt><trkpt lat="45.6278901" lon="11.5292271"><ele>47.0</ele><time>2026-04-06T10:13:06.931Z</time></trkpt><trkpt lat="45.6278667" lon="11.5291269"><ele>47.14285714285714</ele><time>2026-04-06T10:13:09.932Z</time></trkpt><trkpt lat="45.627824" lon="11.5290476"><ele>47.285714285714285</ele><time>2026-04-06T10:13:13.93Z</time></trkpt><trkpt lat="45.6277763" lon="11.5289777"><ele>47.42857142857143</ele><time>2026-04-06T10:13:16.93Z</time></trkpt><trkpt lat="45.6277435" lon="11.5288792"><ele>47.57142857142857</ele><time>2026-04-06T10:13:19.93Z</time></trkpt><trkpt lat="45.6277154" lon="11.5287917"><ele>47.714285714285715</ele><time>2026-04-06T10:13:22.929Z</time></trkpt><trkpt lat="45.6276769" lon="11.5287109"><ele>47.857142857142854</ele><time>2026-04-06T10:13:25.928Z</time></trkpt><trkpt lat="45.6276241" lon="11.5286199"><ele>48.0</ele><time>2026-04-06T10:13:29.927Z</time></trkpt><trkpt lat="45.6275809" lon="11.5285433"><ele>47.71428571428571</ele><time>2026-04-06T10:13:32.932Z</time></trkpt><trkpt lat="45.6275343" lon="11.5284624"><ele>47.42857142857143</ele><time>2026-04-06T10:13:35.928Z</time></trkpt><trkpt lat="45.6274847" lon="11.5283927"><ele>47.14285714285714</ele><time>2026-04-06T10:13:38.93Z</time></trkpt><trkpt lat="45.6274442" lon="11.5283221"><ele>46.857142857142854</ele><time>2026-04-06T10:13:41.927Z</time></trkpt><trkpt lat="45.627405" lon="11.5282316"><ele>46.57142857142857</ele><time>2026-04-06T10:13:45.929Z</time></trkpt><trkpt lat="45.6273424" lon="11.5281532"><ele>46.285714285714285</ele><time>2026-04-06T10:13:49.929Z</time></trkpt><trkpt lat="45.6273048" lon="11.5280746"><ele>46.0</ele><time>2026-04-06T10:13:52.927Z</time></trkpt><trkpt lat="45.6272629" lon="11.5279887"><ele>46.0</ele><time>2026-04-06T10:13:55.928Z</time></trkpt><trkpt lat="45.6272191" lon="11.5279076"><ele>46.0</ele><time>2026-04-06T10:13:58.929Z</time></trkpt><trkpt lat="45.6271834" lon="11.5278234"><ele>46.0</ele><time>2026-04-06T10:14:01.93Z</time></trkpt><trkpt lat="45.627132" lon="11.527738"><ele>46.0</ele><time>2026-04-06T10:14:04.929Z</time></trkpt><trkpt lat="45.6270699" lon="11.5276685"><ele>46.0</ele><time>2026-04-06T10:14:07.93Z</time></trkpt><trkpt lat="45.6270117" lon="11.5275816"><ele>46.0</ele><time>2026-04-06T10:14:10.925Z</time></trkpt><trkpt lat="45.626939" lon="11.5275025"><ele>46.42857142857143</ele><time>2026-04-06T10:14:13.929Z</time></trkpt><trkpt lat="45.6268703" lon="11.5274443"><ele>46.857142857142854</ele><time>2026-04-06T10:14:16.925Z</time></trkpt><trkpt lat="45.6268037" lon="11.5273841"><ele>47.285714285714285</ele><time>2026-04-06T10:14:19.928Z</time></trkpt><trkpt lat="45.6267382" lon="11.5273524"><ele>47.714285714285715</ele><time>2026-04-06T10:14:22.929Z</time></trkpt><trkpt lat="45.6266686" lon="11.5272994"><ele>48.14285714285714</ele><time>2026-04-06T10:14:26.926Z</time></trkpt><trkpt lat="45.6265986" lon="11.5272576"><ele>48.57142857142857</ele><time>2026-04-06T10:14:30.923Z</time></trkpt><trkpt lat="45.6265349" lon="11.5272565"><ele>49.0</ele><time>2026-04-06T10:14:33.926Z</time></trkpt><trkpt lat="45.6264859" lon="11.5273137"><ele>49.0</ele><time>2026-04-06T10:14:36.928Z</time></trkpt><trkpt lat="45.6264613" lon="11.5274023"><ele>49.0</ele><time>2026-04-06T10:14:39.926Z</time></trkpt><trkpt lat="45.6264313" lon="11.5274856"><ele>49.0</ele><time>2026-04-06T10:14:42.925Z</time></trkpt><trkpt lat="45.6263968" lon="11.5275767"><ele>49.0</ele><time>2026-04-06T10:14:46.927Z</time></trkpt><trkpt lat="45.626354" lon="11.5276464"><ele>49.0</ele><time>2026-04-06T10:14:49.925Z</time></trkpt><trkpt lat="45.6262982" lon="11.5277052"><ele>49.0</ele><time>2026-04-06T10:14:52.927Z</time></trkpt><trkpt lat="45.6262437" lon="11.5277715"><ele>49.0</ele><time>2026-04-06T10:14:55.927Z</time></trkpt><trkpt lat="45.6261787" lon="11.527843"><ele>48.714285714285715</ele><time>2026-04-06T10:14:58.925Z</time></trkpt><trkpt lat="45.6261282" lon="11.527899"><ele>48.42857142857143</ele><time>2026-04-06T10:15:01.929Z</time></trkpt><trkpt lat="45.6260746" lon="11.5279473"><ele>48.14285714285714</ele><time>2026-04-06T10:15:04.929Z</time></trkpt><trkpt lat="45.6260152" lon="11.5279872"><ele>47.85714285714286</ele><time>2026-04-06T10:15:07.932Z</time></trkpt><trkpt lat="45.6259319" lon="11.5280074"><ele>47.57142857142857</ele><time>2026-04-06T10:15:11.924Z</time></trkpt><trkpt lat="45.6258528" lon="11.5280089"><ele>47.285714285714285</ele><time>2026-04-06T10:15:14.93Z</time></trkpt><trkpt lat="45.6257787" lon="11.5280114"><ele>47.0</ele><time>2026-04-06T10:15:17.93Z</time></trkpt><trkpt lat="45.625697" lon="11.5280109"><ele>47.0</ele><time>2026-04-06T10:15:20.928Z</time></trkpt><trkpt lat="45.6256169" lon="11.5279866"><ele>47.0</ele><time>2026-04-06T10:15:23.928Z</time></trkpt><trkpt lat="45.6255429" lon="11.527963"><ele>47.0</ele><time>2026-04-06T10:15:26.927Z</time></trkpt><trkpt lat="45.6254767" lon="11.5279648"><ele>47.0</ele><time>2026-04-06T10:15:29.927Z</time></trkpt><trkpt lat="45.62554" lon="11.5279541"><ele>47.0</ele><time>2026-04-06T10:17:26.924Z</time></trkpt><trkpt lat="45.625603" lon="11.5279707"><ele>47.0</ele><time>2026-04-06T10:19:30.931Z</time></trkpt><trkpt lat="45.6256972" lon="11.5280139"><ele>47.0</ele><time>2026-04-06T10:19:34.933Z</time></trkpt><trkpt lat="45.6256312" lon="11.5280212"><ele>47.0</ele><time>2026-04-06T10:20:30.931Z</time></trkpt><trkpt lat="45.6255656" lon="11.5280151"><ele>47.0</ele><time>2026-04-06T10:20:46.926Z</time></trkpt><trkpt lat="45.6254842" lon="11.5279977"><ele>47.0</ele><time>2026-04-06T10:20:50.924Z</time></trkpt><trkpt lat="45.6254226" lon="11.5279651"><ele>47.0</ele><time>2026-04-06T10:20:53.925Z</time></trkpt><trkpt lat="45.6253721" lon="11.5279105"><ele>47.0</ele><time>2026-04-06T10:20:55.928Z</time></trkpt><trkpt lat="45.6253346" lon="11.5278256"><ele>47.0</ele><time>2026-04-06T10:20:59.928Z</time></trkpt><trkpt lat="45.6253305" lon="11.527734"><ele>47.0</ele><time>2026-04-06T10:21:09.928Z</time></trkpt><trkpt lat="45.6253184" lon="11.5276359"><ele>47.0</ele><time>2026-04-06T10:21:15.929Z</time></trkpt><trkpt lat="45.6252937" lon="11.5275293"><ele>47.0</ele><time>2026-04-06T10:21:22.929Z</time></trkpt><trkpt lat="45.6252594" lon="11.5274405"><ele>47.0</ele><time>2026-04-06T10:21:26.928Z</time></trkpt><trkpt lat="45.6252153" lon="11.5273584"><ele>47.0</ele><time>2026-04-06T10:21:31.93Z</time></trkpt><trkpt lat="45.6251965" lon="11.5272573"><ele>47.0</ele><time>2026-04-06T10:21:35.929Z</time></trkpt><trkpt lat="45.6251779" lon="11.5271534"><ele>47.0</ele><time>2026-04-06T10:21:39.931Z</time></trkpt><trkpt lat="45.6251506" lon="11.5270449"><ele>47.0</ele><time>2026-04-06T10:21:44.929Z</time></trkpt><trkpt lat="45.6251331" lon="11.5269497"><ele>47.0</ele><time>2026-04-06T10:21:49.929Z</time></trkpt><trkpt lat="45.6251125" lon="11.5268414"><ele>47.0</ele><time>2026-04-06T10:21:53.929Z</time></trkpt><trkpt lat="45.6250998" lon="11.5267478"><ele>47.0</ele><time>2026-04-06T10:21:56.929Z</time></trkpt><trkpt lat="45.6250896" lon="11.526643"><ele>47.0</ele><time>2026-04-06T10:21:59.927Z</time></trkpt><trkpt lat="45.6250798" lon="11.5265457"><ele>47.0</ele><time>2026-04-06T10:22:02.93Z</time></trkpt><trkpt lat="45.6250663" lon="11.5264571"><ele>47.0</ele><time>2026-04-06T10:22:05.93Z</time></trkpt><trkpt lat="45.6250247" lon="11.5263878"><ele>47.0</ele><time>2026-04-06T10:22:08.93Z</time></trkpt><trkpt lat="45.6249557" lon="11.5263535"><ele>47.0</ele><time>2026-04-06T10:22:11.93Z</time></trkpt><trkpt lat="45.6248904" lon="11.5263608"><ele>47.0</ele><time>2026-04-06T10:22:14.929Z</time></trkpt><trkpt lat="45.6248256" lon="11.5263893"><ele>47.0</ele><time>2026-04-06T10:22:18.929Z</time></trkpt><trkpt lat="45.6247642" lon="11.5264302"><ele>47.0</ele><time>2026-04-06T10:22:22.93Z</time></trkpt><trkpt lat="45.6246948" lon="11.5264626"><ele>47.0</ele><time>2026-04-06T10:22:26.929Z</time></trkpt><trkpt lat="45.6246226" lon="11.5265"><ele>47.0</ele><time>2026-04-06T10:22:30.929Z</time></trkpt><trkpt lat="45.624553" lon="11.5265367"><ele>47.0</ele><time>2026-04-06T10:22:33.931Z</time></trkpt><trkpt lat="45.6244705" lon="11.526535"><ele>47.0</ele><time>2026-04-06T10:22:36.929Z</time></trkpt><trkpt lat="45.6243981" lon="11.5265718"><ele>47.0</ele><time>2026-04-06T10:22:39.928Z</time></trkpt><trkpt lat="45.6243309" lon="11.52661"><ele>47.0</ele><time>2026-04-06T10:22:42.93Z</time></trkpt><trkpt lat="45.6242692" lon="11.5266378"><ele>47.0</ele><time>2026-04-06T10:22:45.929Z</time></trkpt><trkpt lat="45.6241921" lon="11.5266566"><ele>47.0</ele><time>2026-04-06T10:22:49.93Z</time></trkpt><trkpt lat="45.6241155" lon="11.5266667"><ele>47.0</ele><time>2026-04-06T10:22:53.93Z</time></trkpt><trkpt lat="45.6240375" lon="11.5266961"><ele>47.0</ele><time>2026-04-06T10:22:56.928Z</time></trkpt><trkpt lat="45.6239678" lon="11.5267328"><ele>47.0</ele><time>2026-04-06T10:22:59.93Z</time></trkpt><trkpt lat="45.623892" lon="11.5267511"><ele>47.0</ele><time>2026-04-06T10:23:02.928Z</time></trkpt><trkpt lat="45.6238165" lon="11.5267807"><ele>47.0</ele><time>2026-04-06T10:23:05.929Z</time></trkpt><trkpt lat="45.6237399" lon="11.5267752"><ele>47.0</ele><time>2026-04-06T10:23:08.929Z</time></trkpt><trkpt lat="45.6236699" lon="11.5267744"><ele>47.14285714285714</ele><time>2026-04-06T10:23:12.929Z</time></trkpt><trkpt lat="45.6236001" lon="11.5267758"><ele>47.285714285714285</ele><time>2026-04-06T10:23:16.929Z</time></trkpt><trkpt lat="45.6235341" lon="11.5267597"><ele>47.42857142857143</ele><time>2026-04-06T10:23:20.928Z</time></trkpt><trkpt lat="45.6234537" lon="11.5267624"><ele>47.57142857142857</ele><time>2026-04-06T10:23:24.928Z</time></trkpt><trkpt lat="45.6233735" lon="11.5267646"><ele>47.714285714285715</ele><time>2026-04-06T10:23:27.928Z</time></trkpt><trkpt lat="45.6233081" lon="11.5267438"><ele>47.857142857142854</ele><time>2026-04-06T10:23:30.926Z</time></trkpt><trkpt lat="45.6232468" lon="11.5267226"><ele>48.0</ele><time>2026-04-06T10:23:33.927Z</time></trkpt><trkpt lat="45.6231736" lon="11.5267256"><ele>47.99999999999999</ele><time>2026-04-06T10:23:36.927Z</time></trkpt><trkpt lat="45.6231042" lon="11.5267382"><ele>48.0</ele><time>2026-04-06T10:23:39.927Z</time></trkpt><trkpt lat="45.6230305" lon="11.5267254"><ele>48.0</ele><time>2026-04-06T10:23:42.928Z</time></trkpt><trkpt lat="45.6229695" lon="11.5266999"><ele>48.0</ele><time>2026-04-06T10:23:45.928Z</time></trkpt><trkpt lat="45.6229055" lon="11.526679"><ele>48.0</ele><time>2026-04-06T10:23:48.925Z</time></trkpt><trkpt lat="45.6228402" lon="11.5266527"><ele>47.99999999999999</ele><time>2026-04-06T10:23:51.927Z</time></trkpt><trkpt lat="45.6227716" lon="11.5266333"><ele>48.0</ele><time>2026-04-06T10:23:54.927Z</time></trkpt><trkpt lat="45.6227055" lon="11.5266014"><ele>48.0</ele><time>2026-04-06T10:23:57.928Z</time></trkpt><trkpt lat="45.6226233" lon="11.5265753"><ele>48.0</ele><time>2026-04-06T10:24:00.929Z</time></trkpt><trkpt lat="45.6225458" lon="11.5265099"><ele>48.0</ele><time>2026-04-06T10:24:03.931Z</time></trkpt><trkpt lat="45.6224827" lon="11.5264635"><ele>48.0</ele><time>2026-04-06T10:24:06.928Z</time></trkpt><trkpt lat="45.6224271" lon="11.5264138"><ele>48.0</ele><time>2026-04-06T10:24:11.924Z</time></trkpt><trkpt lat="45.6223831" lon="11.526491"><ele>48.0</ele><time>2026-04-06T10:24:17.926Z</time></trkpt><trkpt lat="45.622359" lon="11.5265869"><ele>48.0</ele><time>2026-04-06T10:24:20.927Z</time></trkpt><trkpt lat="45.6223113" lon="11.5266697"><ele>48.0</ele><time>2026-04-06T10:24:24.927Z</time></trkpt><trkpt lat="45.6222733" lon="11.5267696"><ele>48.0</ele><time>2026-04-06T10:24:28.927Z</time></trkpt><trkpt lat="45.6222367" lon="11.5268463"><ele>48.0</ele><time>2026-04-06T10:24:31.929Z</time></trkpt><trkpt lat="45.6221945" lon="11.5269427"><ele>48.0</ele><time>2026-04-06T10:24:35.929Z</time></trkpt><trkpt lat="45.6221507" lon="11.5270376"><ele>48.0</ele><time>2026-04-06T10:24:40.927Z</time></trkpt><trkpt lat="45.6221008" lon="11.527132"><ele>47.99999999999999</ele><time>2026-04-06T10:24:43.927Z</time></trkpt><trkpt lat="45.6220428" lon="11.5271698"><ele>48.0</ele><time>2026-04-06T10:24:46.925Z</time></trkpt><trkpt lat="45.6219882" lon="11.5271219"><ele>48.0</ele><time>2026-04-06T10:25:43.926Z</time></trkpt><trkpt lat="45.6219299" lon="11.5270755"><ele>48.0</ele><time>2026-04-06T10:25:54.928Z</time></trkpt><trkpt lat="45.6218631" lon="11.5270238"><ele>48.0</ele><time>2026-04-06T10:25:59.93Z</time></trkpt><trkpt lat="45.6218016" lon="11.5269829"><ele>47.99999999999999</ele><time>2026-04-06T10:26:01.932Z</time></trkpt><trkpt lat="45.6217388" lon="11.5269555"><ele>48.0</ele><time>2026-04-06T10:26:03.931Z</time></trkpt><trkpt lat="45.6216651" lon="11.5269132"><ele>48.333333333333336</ele><time>2026-04-06T10:26:06.932Z</time></trkpt><trkpt lat="45.6216036" lon="11.5268712"><ele>48.66666666666667</ele><time>2026-04-06T10:26:10.927Z</time></trkpt><trkpt lat="45.6215325" lon="11.5268484"><ele>49.0</ele><time>2026-04-06T10:26:14.926Z</time></trkpt><trkpt lat="45.621466" lon="11.526841"><ele>49.333333333333336</ele><time>2026-04-06T10:26:18.927Z</time></trkpt><trkpt lat="45.6213975" lon="11.5267952"><ele>49.66666666666667</ele><time>2026-04-06T10:26:23.929Z</time></trkpt><trkpt lat="45.6213641" lon="11.5266624"><ele>50.0</ele><time>2026-04-06T10:26:27.929Z</time></trkpt><trkpt lat="45.6213702" lon="11.5265426"><ele>50.00000000000001</ele><time>2026-04-06T10:26:29.926Z</time></trkpt><trkpt lat="45.6213954" lon="11.5264499"><ele>50.0</ele><time>2026-04-06T10:26:31.932Z</time></trkpt><trkpt lat="45.6214056" lon="11.5263475"><ele>50.0</ele><time>2026-04-06T10:26:34.93Z</time></trkpt><trkpt lat="45.621377" lon="11.5262531"><ele>50.0</ele><time>2026-04-06T10:26:38.931Z</time></trkpt><trkpt lat="45.621342" lon="11.5261653"><ele>50.0</ele><time>2026-04-06T10:26:41.926Z</time></trkpt><trkpt lat="45.6213139" lon="11.5260701"><ele>50.00000000000001</ele><time>2026-04-06T10:26:44.926Z</time></trkpt><trkpt lat="45.6212847" lon="11.5259855"><ele>50.0</ele><time>2026-04-06T10:26:47.928Z</time></trkpt><trkpt lat="45.6212514" lon="11.5258827"><ele>49.66666666666667</ele><time>2026-04-06T10:26:51.927Z</time></trkpt><trkpt lat="45.6212433" lon="11.5257601"><ele>49.333333333333336</ele><time>2026-04-06T10:26:54.928Z</time></trkpt><trkpt lat="45.6212254" lon="11.5256462"><ele>49.0</ele><time>2026-04-06T10:26:57.928Z</time></trkpt><trkpt lat="45.6212085" lon="11.5255256"><ele>48.66666666666667</ele><time>2026-04-06T10:27:00.93Z</time></trkpt><trkpt lat="45.6211964" lon="11.5253913"><ele>48.333333333333336</ele><time>2026-04-06T10:27:03.924Z</time></trkpt><trkpt lat="45.6211874" lon="11.5253013"><ele>48.0</ele><time>2026-04-06T10:27:05.931Z</time></trkpt><trkpt lat="45.6211741" lon="11.5252086"><ele>48.0</ele><time>2026-04-06T10:27:07.931Z</time></trkpt><trkpt lat="45.6211623" lon="11.5251199"><ele>48.0</ele><time>2026-04-06T10:27:09.93Z</time></trkpt><trkpt lat="45.6211448" lon="11.5250025"><ele>48.0</ele><time>2026-04-06T10:27:12.928Z</time></trkpt><trkpt lat="45.6211287" lon="11.5248847"><ele>48.0</ele><time>2026-04-06T10:27:15.929Z</time></trkpt><trkpt lat="45.6211056" lon="11.5247658"><ele>48.0</ele><time>2026-04-06T10:27:18.926Z</time></trkpt><trkpt lat="45.6210993" lon="11.5246543"><ele>48.0</ele><time>2026-04-06T10:27:21.928Z</time></trkpt><trkpt lat="45.6211009" lon="11.5245642"><ele>48.14285714285714</ele><time>2026-04-06T10:27:24.927Z</time></trkpt><trkpt lat="45.6210984" lon="11.524455"><ele>48.285714285714285</ele><time>2026-04-06T10:27:28.929Z</time></trkpt><trkpt lat="45.6211295" lon="11.5243753"><ele>48.42857142857143</ele><time>2026-04-06T10:27:32.932Z</time></trkpt><trkpt lat="45.6211633" lon="11.5242794"><ele>48.57142857142857</ele><time>2026-04-06T10:29:59.929Z</time></trkpt><trkpt lat="45.6212065" lon="11.5241939"><ele>48.714285714285715</ele><time>2026-04-06T10:30:03.927Z</time></trkpt><trkpt lat="45.6212468" lon="11.5241081"><ele>48.857142857142854</ele><time>2026-04-06T10:30:06.928Z</time></trkpt><trkpt lat="45.6212869" lon="11.5240176"><ele>49.0</ele><time>2026-04-06T10:30:10.927Z</time></trkpt><trkpt lat="45.6213322" lon="11.5239261"><ele>49.0</ele><time>2026-04-06T10:30:14.928Z</time></trkpt><trkpt lat="45.6213564" lon="11.5238343"><ele>49.0</ele><time>2026-04-06T10:30:18.925Z</time></trkpt><trkpt lat="45.6213886" lon="11.5237544"><ele>49.0</ele><time>2026-04-06T10:30:21.921Z</time></trkpt><trkpt lat="45.6214238" lon="11.5236507"><ele>49.0</ele><time>2026-04-06T10:30:25.926Z</time></trkpt><trkpt lat="45.6214527" lon="11.523561"><ele>49.0</ele><time>2026-04-06T10:30:29.926Z</time></trkpt><trkpt lat="45.6214811" lon="11.523479"><ele>49.0</ele><time>2026-04-06T10:30:32.928Z</time></trkpt><trkpt lat="45.6215308" lon="11.5233753"><ele>49.0</ele><time>2026-04-06T10:30:36.926Z</time></trkpt><trkpt lat="45.6215675" lon="11.5233003"><ele>48.99999999999999</ele><time>2026-04-06T10:30:39.924Z</time></trkpt><trkpt lat="45.6216043" lon="11.5232099"><ele>49.0</ele><time>2026-04-06T10:30:42.929Z</time></trkpt><trkpt lat="45.6216505" lon="11.5231351"><ele>49.0</ele><time>2026-04-06T10:30:45.924Z</time></trkpt><trkpt lat="45.6216919" lon="11.5230313"><ele>49.0</ele><time>2026-04-06T10:30:49.925Z</time></trkpt><trkpt lat="45.6217297" lon="11.5229379"><ele>48.99999999999999</ele><time>2026-04-06T10:30:52.928Z</time></trkpt><trkpt lat="45.6217743" lon="11.5228551"><ele>49.0</ele><time>2026-04-06T10:30:56.927Z</time></trkpt><trkpt lat="45.6218199" lon="11.5227379"><ele>49.166666666666664</ele><time>2026-04-06T10:30:59.928Z</time></trkpt><trkpt lat="45.6218546" lon="11.52265"><ele>49.33333333333333</ele><time>2026-04-06T10:31:01.926Z</time></trkpt><trkpt lat="45.6218889" lon="11.5225654"><ele>49.5</ele><time>2026-04-06T10:31:03.923Z</time></trkpt><trkpt lat="45.6219384" lon="11.5224658"><ele>49.66666666666667</ele><time>2026-04-06T10:31:06.927Z</time></trkpt><trkpt lat="45.621989" lon="11.5223543"><ele>49.833333333333336</ele><time>2026-04-06T10:31:09.928Z</time></trkpt><trkpt lat="45.6220225" lon="11.522268"><ele>50.0</ele><time>2026-04-06T10:31:11.926Z</time></trkpt><trkpt lat="45.6220521" lon="11.5221879"><ele>50.00000000000001</ele><time>2026-04-06T10:31:13.927Z</time></trkpt><trkpt lat="45.6220946" lon="11.5220777"><ele>50.0</ele><time>2026-04-06T10:31:16.926Z</time></trkpt><trkpt lat="45.6221278" lon="11.5219999"><ele>50.0</ele><time>2026-04-06T10:31:18.927Z</time></trkpt><trkpt lat="45.6221645" lon="11.5219205"><ele>50.0</ele><time>2026-04-06T10:31:20.926Z</time></trkpt><trkpt lat="45.6222066" lon="11.5218472"><ele>50.0</ele><time>2026-04-06T10:31:22.927Z</time></trkpt><trkpt lat="45.6222569" lon="11.52175"><ele>50.00000000000001</ele><time>2026-04-06T10:31:25.927Z</time></trkpt><trkpt lat="45.6222969" lon="11.5216572"><ele>50.0</ele><time>2026-04-06T10:31:28.926Z</time></trkpt><trkpt lat="45.6223376" lon="11.5215811"><ele>50.00000000000001</ele><time>2026-04-06T10:31:30.926Z</time></trkpt><trkpt lat="45.6223759" lon="11.5215004"><ele>50.0</ele><time>2026-04-06T10:31:32.925Z</time></trkpt><trkpt lat="45.6224099" lon="11.5213748"><ele>50.0</ele><time>2026-04-06T10:31:35.929Z</time></trkpt><trkpt lat="45.6224346" lon="11.5212526"><ele>50.0</ele><time>2026-04-06T10:31:38.928Z</time></trkpt><trkpt lat="45.622454" lon="11.5211216"><ele>50.00000000000001</ele><time>2026-04-06T10:31:41.926Z</time></trkpt><trkpt lat="45.622473" lon="11.5209967"><ele>50.0</ele><time>2026-04-06T10:31:44.928Z</time></trkpt><trkpt lat="45.6224837" lon="11.5209055"><ele>50.00000000000001</ele><time>2026-04-06T10:31:46.928Z</time></trkpt><trkpt lat="45.6224992" lon="11.5208137"><ele>50.0</ele><time>2026-04-06T10:31:48.927Z</time></trkpt><trkpt lat="45.6225336" lon="11.5207065"><ele>50.0</ele><time>2026-04-06T10:31:50.926Z</time></trkpt><trkpt lat="45.6225753" lon="11.5206126"><ele>50.0</ele><time>2026-04-06T10:31:52.927Z</time></trkpt><trkpt lat="45.6226092" lon="11.5205326"><ele>50.0</ele><time>2026-04-06T10:31:54.929Z</time></trkpt><trkpt lat="45.6226507" lon="11.520459"><ele>50.00000000000001</ele><time>2026-04-06T10:31:56.922Z</time></trkpt><trkpt lat="45.6226863" lon="11.5203473"><ele>50.0</ele><time>2026-04-06T10:31:59.925Z</time></trkpt><trkpt lat="45.622736" lon="11.5202456"><ele>50.00000000000001</ele><time>2026-04-06T10:32:02.926Z</time></trkpt><trkpt lat="45.6227751" lon="11.5201732"><ele>50.0</ele><time>2026-04-06T10:32:04.925Z</time></trkpt><trkpt lat="45.6228391" lon="11.5200829"><ele>50.0</ele><time>2026-04-06T10:32:07.925Z</time></trkpt><trkpt lat="45.6228822" lon="11.5200067"><ele>50.0</ele><time>2026-04-06T10:32:09.923Z</time></trkpt><trkpt lat="45.6229234" lon="11.5199336"><ele>50.0</ele><time>2026-04-06T10:32:11.926Z</time></trkpt><trkpt lat="45.6229615" lon="11.5198558"><ele>50.00000000000001</ele><time>2026-04-06T10:32:13.927Z</time></trkpt><trkpt lat="45.6229922" lon="11.5197708"><ele>50.0</ele><time>2026-04-06T10:32:15.925Z</time></trkpt><trkpt lat="45.6230274" lon="11.5196883"><ele>50.00000000000001</ele><time>2026-04-06T10:32:17.928Z</time></trkpt><trkpt lat="45.623067" lon="11.5196012"><ele>50.0</ele><time>2026-04-06T10:32:19.926Z</time></trkpt><trkpt lat="45.6231029" lon="11.5195098"><ele>50.0</ele><time>2026-04-06T10:32:21.926Z</time></trkpt><trkpt lat="45.623132" lon="11.519418"><ele>50.0</ele><time>2026-04-06T10:32:23.926Z</time></trkpt><trkpt lat="45.6231696" lon="11.5193043"><ele>50.0</ele><time>2026-04-06T10:32:26.925Z</time></trkpt><trkpt lat="45.6231989" lon="11.5192216"><ele>50.00000000000001</ele><time>2026-04-06T10:32:28.927Z</time></trkpt><trkpt lat="45.6232345" lon="11.5191367"><ele>50.0</ele><time>2026-04-06T10:32:30.925Z</time></trkpt><trkpt lat="45.6232678" lon="11.5190463"><ele>49.714285714285715</ele><time>2026-04-06T10:32:32.929Z</time></trkpt><trkpt lat="45.6233059" lon="11.5189696"><ele>49.42857142857143</ele><time>2026-04-06T10:32:34.925Z</time></trkpt><trkpt lat="45.6233434" lon="11.5188865"><ele>49.14285714285714</ele><time>2026-04-06T10:32:36.925Z</time></trkpt><trkpt lat="45.6233824" lon="11.5188063"><ele>48.85714285714286</ele><time>2026-04-06T10:32:38.926Z</time></trkpt><trkpt lat="45.623419" lon="11.5187291"><ele>48.57142857142857</ele><time>2026-04-06T10:32:40.925Z</time></trkpt><trkpt lat="45.6234664" lon="11.5186535"><ele>48.285714285714285</ele><time>2026-04-06T10:32:42.927Z</time></trkpt><trkpt lat="45.6235026" lon="11.5185772"><ele>48.0</ele><time>2026-04-06T10:32:44.926Z</time></trkpt><trkpt lat="45.623545" lon="11.5184791"><ele>48.0</ele><time>2026-04-06T10:32:47.925Z</time></trkpt><trkpt lat="45.6235966" lon="11.5183862"><ele>48.0</ele><time>2026-04-06T10:32:50.927Z</time></trkpt><trkpt lat="45.6236333" lon="11.518312"><ele>48.0</ele><time>2026-04-06T10:32:52.925Z</time></trkpt><trkpt lat="45.6236795" lon="11.5182032"><ele>48.0</ele><time>2026-04-06T10:32:55.926Z</time></trkpt><trkpt lat="45.6237115" lon="11.518086"><ele>48.0</ele><time>2026-04-06T10:32:58.924Z</time></trkpt><trkpt lat="45.6237558" lon="11.5179772"><ele>48.0</ele><time>2026-04-06T10:33:01.926Z</time></trkpt><trkpt lat="45.6237803" lon="11.5178941"><ele>48.166666666666664</ele><time>2026-04-06T10:33:03.927Z</time></trkpt><trkpt lat="45.6237726" lon="11.5177719"><ele>48.33333333333333</ele><time>2026-04-06T10:33:06.926Z</time></trkpt><trkpt lat="45.623718" lon="11.5176781"><ele>48.5</ele><time>2026-04-06T10:33:09.927Z</time></trkpt><trkpt lat="45.6236582" lon="11.5176135"><ele>48.666666666666664</ele><time>2026-04-06T10:33:12.926Z</time></trkpt><trkpt lat="45.6236051" lon="11.5175251"><ele>48.83333333333333</ele><time>2026-04-06T10:33:16.927Z</time></trkpt><trkpt lat="45.6235551" lon="11.5174315"><ele>49.0</ele><time>2026-04-06T10:33:19.927Z</time></trkpt><trkpt lat="45.6234986" lon="11.5173526"><ele>48.99999999999999</ele><time>2026-04-06T10:33:22.929Z</time></trkpt><trkpt lat="45.6234492" lon="11.5172575"><ele>49.0</ele><time>2026-04-06T10:33:25.929Z</time></trkpt><trkpt lat="45.6234269" lon="11.5171321"><ele>49.0</ele><time>2026-04-06T10:33:28.929Z</time></trkpt><trkpt lat="45.623458" lon="11.5170045"><ele>49.0</ele><time>2026-04-06T10:33:31.929Z</time></trkpt><trkpt lat="45.623481" lon="11.5168829"><ele>48.99999999999999</ele><time>2026-04-06T10:33:34.927Z</time></trkpt><trkpt lat="45.6235009" lon="11.5167667"><ele>49.0</ele><time>2026-04-06T10:33:37.929Z</time></trkpt><trkpt lat="45.623525" lon="11.5166691"><ele>49.33333333333333</ele><time>2026-04-06T10:33:40.926Z</time></trkpt><trkpt lat="45.6235478" lon="11.5165628"><ele>49.666666666666664</ele><time>2026-04-06T10:33:44.928Z</time></trkpt><trkpt lat="45.6235397" lon="11.5164703"><ele>50.0</ele><time>2026-04-06T10:34:40.928Z</time></trkpt><trkpt lat="45.6235535" lon="11.5163663"><ele>50.33333333333333</ele><time>2026-04-06T10:34:45.93Z</time></trkpt><trkpt lat="45.6235853" lon="11.5162637"><ele>50.666666666666664</ele><time>2026-04-06T10:34:48.93Z</time></trkpt><trkpt lat="45.6236148" lon="11.5161502"><ele>51.0</ele><time>2026-04-06T10:34:51.928Z</time></trkpt><trkpt lat="45.6236343" lon="11.5160483"><ele>51.166666666666664</ele><time>2026-04-06T10:34:54.929Z</time></trkpt><trkpt lat="45.6236628" lon="11.5159381"><ele>51.33333333333333</ele><time>2026-04-06T10:34:57.928Z</time></trkpt><trkpt lat="45.6236896" lon="11.5158282"><ele>51.5</ele><time>2026-04-06T10:35:00.932Z</time></trkpt><trkpt lat="45.6237096" lon="11.5157005"><ele>51.666666666666664</ele><time>2026-04-06T10:35:03.932Z</time></trkpt><trkpt lat="45.6237283" lon="11.5155836"><ele>51.83333333333333</ele><time>2026-04-06T10:35:06.925Z</time></trkpt><trkpt lat="45.6237612" lon="11.5154583"><ele>52.0</ele><time>2026-04-06T10:35:09.933Z</time></trkpt><trkpt lat="45.6237937" lon="11.5153518"><ele>51.99999999999999</ele><time>2026-04-06T10:35:12.931Z</time></trkpt><trkpt lat="45.6238164" lon="11.5152454"><ele>52.0</ele><time>2026-04-06T10:35:15.93Z</time></trkpt><trkpt lat="45.6238379" lon="11.5151373"><ele>52.0</ele><time>2026-04-06T10:35:18.927Z</time></trkpt><trkpt lat="45.623862" lon="11.5150372"><ele>52.0</ele><time>2026-04-06T10:35:21.928Z</time></trkpt><trkpt lat="45.6238943" lon="11.514932"><ele>51.99999999999999</ele><time>2026-04-06T10:35:24.927Z</time></trkpt><trkpt lat="45.6239152" lon="11.5148226"><ele>52.0</ele><time>2026-04-06T10:35:27.928Z</time></trkpt><trkpt lat="45.6239464" lon="11.5147127"><ele>51.99999999999999</ele><time>2026-04-06T10:35:30.933Z</time></trkpt><trkpt lat="45.623973" lon="11.5145877"><ele>52.0</ele><time>2026-04-06T10:35:33.932Z</time></trkpt><trkpt lat="45.62401" lon="11.5144732"><ele>52.0</ele><time>2026-04-06T10:35:36.933Z</time></trkpt><trkpt lat="45.6240377" lon="11.5143648"><ele>52.0</ele><time>2026-04-06T10:35:39.933Z</time></trkpt><trkpt lat="45.6240621" lon="11.5142529"><ele>51.99999999999999</ele><time>2026-04-06T10:35:42.929Z</time></trkpt><trkpt lat="45.6240972" lon="11.5141486"><ele>52.0</ele><time>2026-04-06T10:35:45.927Z</time></trkpt><trkpt lat="45.6241227" lon="11.5140275"><ele>51.99999999999999</ele><time>2026-04-06T10:35:48.927Z</time></trkpt><trkpt lat="45.624149" lon="11.5139079"><ele>52.0</ele><time>2026-04-06T10:35:51.925Z</time></trkpt><trkpt lat="45.6241653" lon="11.5138205"><ele>52.0</ele><time>2026-04-06T10:35:53.925Z</time></trkpt><trkpt lat="45.6242044" lon="11.5136989"><ele>52.0</ele><time>2026-04-06T10:35:56.927Z</time></trkpt><trkpt lat="45.6242279" lon="11.5136042"><ele>51.99999999999999</ele><time>2026-04-06T10:35:58.925Z</time></trkpt><trkpt lat="45.62426" lon="11.5134836"><ele>52.0</ele><time>2026-04-06T10:36:01.93Z</time></trkpt><trkpt lat="45.624295" lon="11.5133595"><ele>52.0</ele><time>2026-04-06T10:36:04.93Z</time></trkpt><trkpt lat="45.6243201" lon="11.5132727"><ele>52.0</ele><time>2026-04-06T10:36:06.93Z</time></trkpt><trkpt lat="45.6243484" lon="11.5131887"><ele>52.0</ele><time>2026-04-06T10:36:08.931Z</time></trkpt><trkpt lat="45.6243839" lon="11.5130916"><ele>52.0</ele><time>2026-04-06T10:36:11.925Z</time></trkpt><trkpt lat="45.6244125" lon="11.5129962"><ele>52.0</ele><time>2026-04-06T10:36:25.927Z</time></trkpt><trkpt lat="45.624456" lon="11.5129173"><ele>52.0</ele><time>2026-04-06T10:36:28.927Z</time></trkpt><trkpt lat="45.6244987" lon="11.5128112"><ele>52.0</ele><time>2026-04-06T10:36:31.932Z</time></trkpt><trkpt lat="45.6245442" lon="11.5127029"><ele>52.0</ele><time>2026-04-06T10:36:34.932Z</time></trkpt><trkpt lat="45.6245962" lon="11.5126003"><ele>52.0</ele><time>2026-04-06T10:36:37.932Z</time></trkpt><trkpt lat="45.6246461" lon="11.5125205"><ele>52.0</ele><time>2026-04-06T10:36:39.933Z</time></trkpt><trkpt lat="45.6246842" lon="11.5124298"><ele>52.0</ele><time>2026-04-06T10:36:41.926Z</time></trkpt><trkpt lat="45.6247211" lon="11.5123396"><ele>52.0</ele><time>2026-04-06T10:36:43.927Z</time></trkpt><trkpt lat="45.6247615" lon="11.5122654"><ele>52.0</ele><time>2026-04-06T10:36:45.929Z</time></trkpt><trkpt lat="45.6248037" lon="11.5121943"><ele>52.0</ele><time>2026-04-06T10:36:47.929Z</time></trkpt><trkpt lat="45.6248467" lon="11.5121191"><ele>52.166666666666664</ele><time>2026-04-06T10:36:49.929Z</time></trkpt><trkpt lat="45.6248817" lon="11.512036"><ele>52.33333333333333</ele><time>2026-04-06T10:36:51.929Z</time></trkpt><trkpt lat="45.6249323" lon="11.5119261"><ele>52.5</ele><time>2026-04-06T10:36:54.926Z</time></trkpt><trkpt lat="45.6249701" lon="11.5118472"><ele>52.66666666666667</ele><time>2026-04-06T10:36:56.927Z</time></trkpt><trkpt lat="45.6250183" lon="11.5117396"><ele>52.833333333333336</ele><time>2026-04-06T10:36:59.925Z</time></trkpt><trkpt lat="45.6250556" lon="11.5116453"><ele>53.0</ele><time>2026-04-06T10:37:02.929Z</time></trkpt><trkpt lat="45.6251085" lon="11.5115814"><ele>53.00000000000001</ele><time>2026-04-06T10:39:25.926Z</time></trkpt><trkpt lat="45.6251778" lon="11.5116272"><ele>53.0</ele><time>2026-04-06T10:39:28.927Z</time></trkpt><trkpt lat="45.6252475" lon="11.5116861"><ele>53.0</ele><time>2026-04-06T10:39:30.932Z</time></trkpt><trkpt lat="45.6253266" lon="11.511732"><ele>53.0</ele><time>2026-04-06T10:39:32.93Z</time></trkpt><trkpt lat="45.6253912" lon="11.5117566"><ele>53.00000000000001</ele><time>2026-04-06T10:39:35.927Z</time></trkpt><trkpt lat="45.6254626" lon="11.5118015"><ele>53.0</ele><time>2026-04-06T10:39:39.933Z</time></trkpt><trkpt lat="45.625537" lon="11.5118368"><ele>53.00000000000001</ele><time>2026-04-06T10:39:42.927Z</time></trkpt><trkpt lat="45.625617" lon="11.5118636"><ele>53.0</ele><time>2026-04-06T10:39:45.927Z</time></trkpt><trkpt lat="45.6257043" lon="11.5119082"><ele>53.0</ele><time>2026-04-06T10:39:48.925Z</time></trkpt><trkpt lat="45.6257657" lon="11.5119414"><ele>53.0</ele><time>2026-04-06T10:39:50.926Z</time></trkpt><trkpt lat="45.6258267" lon="11.5119756"><ele>53.00000000000001</ele><time>2026-04-06T10:39:52.927Z</time></trkpt><trkpt lat="45.6259081" lon="11.5120088"><ele>53.0</ele><time>2026-04-06T10:39:55.925Z</time></trkpt><trkpt lat="45.6259876" lon="11.512051"><ele>53.00000000000001</ele><time>2026-04-06T10:39:58.924Z</time></trkpt><trkpt lat="45.6260475" lon="11.5120859"><ele>53.0</ele><time>2026-04-06T10:40:00.927Z</time></trkpt><trkpt lat="45.626132" lon="11.5121323"><ele>53.0</ele><time>2026-04-06T10:40:03.929Z</time></trkpt><trkpt lat="45.6262163" lon="11.5121729"><ele>53.0</ele><time>2026-04-06T10:40:06.928Z</time></trkpt><trkpt lat="45.6262945" lon="11.5122037"><ele>53.00000000000001</ele><time>2026-04-06T10:40:09.929Z</time></trkpt><trkpt lat="45.6263603" lon="11.512244"><ele>53.0</ele><time>2026-04-06T10:40:12.926Z</time></trkpt><trkpt lat="45.6264294" lon="11.5122904"><ele>53.00000000000001</ele><time>2026-04-06T10:40:15.926Z</time></trkpt><trkpt lat="45.6264957" lon="11.5123194"><ele>53.0</ele><time>2026-04-06T10:40:43.929Z</time></trkpt><trkpt lat="45.626564" lon="11.5123498"><ele>53.0</ele><time>2026-04-06T10:40:47.93Z</time></trkpt><trkpt lat="45.6266347" lon="11.5123897"><ele>53.0</ele><time>2026-04-06T10:40:50.93Z</time></trkpt><trkpt lat="45.6267049" lon="11.5124182"><ele>53.00000000000001</ele><time>2026-04-06T10:40:53.924Z</time></trkpt><trkpt lat="45.6267812" lon="11.5124475"><ele>53.0</ele><time>2026-04-06T10:40:56.929Z</time></trkpt><trkpt lat="45.6268641" lon="11.5124769"><ele>53.00000000000001</ele><time>2026-04-06T10:40:59.928Z</time></trkpt><trkpt lat="45.6269538" lon="11.5125293"><ele>53.0</ele><time>2026-04-06T10:41:02.934Z</time></trkpt><trkpt lat="45.6270237" lon="11.5125552"><ele>53.0</ele><time>2026-04-06T10:41:05.934Z</time></trkpt><trkpt lat="45.6271088" lon="11.512578"><ele>53.0</ele><time>2026-04-06T10:41:08.933Z</time></trkpt><trkpt lat="45.6271803" lon="11.512635"><ele>53.00000000000001</ele><time>2026-04-06T10:41:11.928Z</time></trkpt><trkpt lat="45.6272418" lon="11.5127158"><ele>53.0</ele><time>2026-04-06T10:41:14.93Z</time></trkpt><trkpt lat="45.6272942" lon="11.5128129"><ele>52.833333333333336</ele><time>2026-04-06T10:41:17.932Z</time></trkpt><trkpt lat="45.6273385" lon="11.5129172"><ele>52.66666666666667</ele><time>2026-04-06T10:41:20.928Z</time></trkpt><trkpt lat="45.6273934" lon="11.5130146"><ele>52.5</ele><time>2026-04-06T10:41:23.93Z</time></trkpt><trkpt lat="45.6274576" lon="11.5130846"><ele>52.33333333333333</ele><time>2026-04-06T10:41:26.929Z</time></trkpt><trkpt lat="45.6275264" lon="11.5131729"><ele>52.166666666666664</ele><time>2026-04-06T10:41:29.93Z</time></trkpt><trkpt lat="45.6275963" lon="11.5132674"><ele>52.0</ele><time>2026-04-06T10:41:32.934Z</time></trkpt><trkpt lat="45.6276463" lon="11.5133356"><ele>51.99999999999999</ele><time>2026-04-06T10:41:34.935Z</time></trkpt><trkpt lat="45.6276922" lon="11.5134008"><ele>52.0</ele><time>2026-04-06T10:41:36.937Z</time></trkpt><trkpt lat="45.6277767" lon="11.5134617"><ele>52.0</ele><time>2026-04-06T10:41:39.932Z</time></trkpt><trkpt lat="45.6278363" lon="11.5135345"><ele>52.0</ele><time>2026-04-06T10:41:42.927Z</time></trkpt><trkpt lat="45.6279001" lon="11.5136043"><ele>51.99999999999999</ele><time>2026-04-06T10:41:45.928Z</time></trkpt><trkpt lat="45.627976" lon="11.5136515"><ele>52.0</ele><time>2026-04-06T10:41:48.927Z</time></trkpt><trkpt lat="45.6280568" lon="11.5136612"><ele>52.166666666666664</ele><time>2026-04-06T10:41:51.928Z</time></trkpt><trkpt lat="45.6281405" lon="11.513645"><ele>52.33333333333333</ele><time>2026-04-06T10:41:54.929Z</time></trkpt><trkpt lat="45.6282194" lon="11.5136107"><ele>52.5</ele><time>2026-04-06T10:41:57.928Z</time></trkpt><trkpt lat="45.6282929" lon="11.5135728"><ele>52.66666666666667</ele><time>2026-04-06T10:42:01.931Z</time></trkpt><trkpt lat="45.6283594" lon="11.513578"><ele>52.833333333333336</ele><time>2026-04-06T10:42:04.926Z</time></trkpt><trkpt lat="45.628434" lon="11.5135744"><ele>53.0</ele><time>2026-04-06T10:42:07.932Z</time></trkpt><trkpt lat="45.6285088" lon="11.5135578"><ele>53.0</ele><time>2026-04-06T10:42:11.925Z</time></trkpt><trkpt lat="45.6285689" lon="11.5135166"><ele>53.0</ele><time>2026-04-06T10:42:27.931Z</time></trkpt><trkpt lat="45.6286377" lon="11.513486"><ele>53.0</ele><time>2026-04-06T10:42:30.932Z</time></trkpt><trkpt lat="45.6286978" lon="11.5134574"><ele>53.0</ele><time>2026-04-06T10:42:32.933Z</time></trkpt><trkpt lat="45.6287596" lon="11.5134169"><ele>53.0</ele><time>2026-04-06T10:42:34.934Z</time></trkpt><trkpt lat="45.6288184" lon="11.5133726"><ele>53.0</ele><time>2026-04-06T10:42:36.931Z</time></trkpt><trkpt lat="45.6288993" lon="11.5133077"><ele>53.0</ele><time>2026-04-06T10:42:39.924Z</time></trkpt><trkpt lat="45.6289805" lon="11.5132536"><ele>53.00000000000001</ele><time>2026-04-06T10:42:42.927Z</time></trkpt><trkpt lat="45.6290698" lon="11.5132173"><ele>53.0</ele><time>2026-04-06T10:42:45.926Z</time></trkpt><trkpt lat="45.6291629" lon="11.5132051"><ele>53.0</ele><time>2026-04-06T10:42:48.928Z</time></trkpt><trkpt lat="45.6292529" lon="11.513227"><ele>53.0</ele><time>2026-04-06T10:42:51.922Z</time></trkpt><trkpt lat="45.6293197" lon="11.5132421"><ele>53.00000000000001</ele><time>2026-04-06T10:42:53.927Z</time></trkpt><trkpt lat="45.6294044" lon="11.5132805"><ele>53.0</ele><time>2026-04-06T10:42:56.924Z</time></trkpt><trkpt lat="45.6294679" lon="11.5133134"><ele>52.85714285714286</ele><time>2026-04-06T10:42:59.925Z</time></trkpt><trkpt lat="45.6295276" lon="11.5133577"><ele>52.71428571428571</ele><time>2026-04-06T10:43:03.932Z</time></trkpt><trkpt lat="45.629591" lon="11.5133888"><ele>52.57142857142857</ele><time>2026-04-06T10:43:07.93Z</time></trkpt><trkpt lat="45.6296507" lon="11.5134274"><ele>52.42857142857143</ele><time>2026-04-06T10:43:10.926Z</time></trkpt><trkpt lat="45.629732" lon="11.5134447"><ele>52.28571428571429</ele><time>2026-04-06T10:43:14.926Z</time></trkpt><trkpt lat="45.6298036" lon="11.5134602"><ele>52.14285714285714</ele><time>2026-04-06T10:43:17.925Z</time></trkpt><trkpt lat="45.6298648" lon="11.5134841"><ele>52.0</ele><time>2026-04-06T10:43:19.926Z</time></trkpt><trkpt lat="45.6299456" lon="11.5134953"><ele>51.99999999999999</ele><time>2026-04-06T10:43:22.927Z</time></trkpt><trkpt lat="45.6300196" lon="11.5135012"><ele>52.0</ele><time>2026-04-06T10:43:25.925Z</time></trkpt><trkpt lat="45.6301085" lon="11.5134857"><ele>52.0</ele><time>2026-04-06T10:43:28.926Z</time></trkpt><trkpt lat="45.6301888" lon="11.5134344"><ele>52.0</ele><time>2026-04-06T10:43:31.929Z</time></trkpt><trkpt lat="45.6302485" lon="11.5134012"><ele>51.99999999999999</ele><time>2026-04-06T10:43:33.926Z</time></trkpt><trkpt lat="45.6303143" lon="11.5133716"><ele>52.0</ele><time>2026-04-06T10:43:35.927Z</time></trkpt><trkpt lat="45.6303869" lon="11.5133556"><ele>52.166666666666664</ele><time>2026-04-06T10:43:37.925Z</time></trkpt><trkpt lat="45.6304501" lon="11.5133636"><ele>52.33333333333333</ele><time>2026-04-06T10:43:39.926Z</time></trkpt><trkpt lat="45.6305404" lon="11.513397"><ele>52.5</ele><time>2026-04-06T10:43:42.927Z</time></trkpt><trkpt lat="45.6306166" lon="11.5134655"><ele>52.66666666666667</ele><time>2026-04-06T10:43:45.923Z</time></trkpt><trkpt lat="45.6306816" lon="11.5135258"><ele>52.833333333333336</ele><time>2026-04-06T10:43:48.923Z</time></trkpt><trkpt lat="45.6307518" lon="11.5135836"><ele>53.0</ele><time>2026-04-06T10:43:51.923Z</time></trkpt><trkpt lat="45.6308099" lon="11.5136319"><ele>53.00000000000001</ele><time>2026-04-06T10:43:53.922Z</time></trkpt><trkpt lat="45.6308808" lon="11.5137058"><ele>53.0</ele><time>2026-04-06T10:43:56.925Z</time></trkpt><trkpt lat="45.6309425" lon="11.513763"><ele>53.0</ele><time>2026-04-06T10:43:59.927Z</time></trkpt><trkpt lat="45.6310127" lon="11.5138341"><ele>53.0</ele><time>2026-04-06T10:44:02.929Z</time></trkpt><trkpt lat="45.6310753" lon="11.5139096"><ele>53.00000000000001</ele><time>2026-04-06T10:44:05.93Z</time></trkpt><trkpt lat="45.6311503" lon="11.5139746"><ele>53.0</ele><time>2026-04-06T10:44:08.924Z</time></trkpt><trkpt lat="45.6312004" lon="11.5140342"><ele>53.16666666666667</ele><time>2026-04-06T10:44:10.925Z</time></trkpt><trkpt lat="45.6312622" lon="11.51409"><ele>53.333333333333336</ele><time>2026-04-06T10:44:12.926Z</time></trkpt><trkpt lat="45.6313248" lon="11.5141544"><ele>53.5</ele><time>2026-04-06T10:44:14.926Z</time></trkpt><trkpt lat="45.6313784" lon="11.5142269"><ele>53.66666666666667</ele><time>2026-04-06T10:44:16.925Z</time></trkpt><trkpt lat="45.6314418" lon="11.5143097"><ele>53.833333333333336</ele><time>2026-04-06T10:44:19.933Z</time></trkpt><trkpt lat="45.6315003" lon="11.51437"><ele>54.0</ele><time>2026-04-06T10:44:22.927Z</time></trkpt><trkpt lat="45.6315547" lon="11.5144295"><ele>54.0</ele><time>2026-04-06T10:44:26.928Z</time></trkpt><trkpt lat="45.6315593" lon="11.5145258"><ele>54.0</ele><time>2026-04-06T10:44:29.927Z</time></trkpt><trkpt lat="45.631515" lon="11.5146321"><ele>54.0</ele><time>2026-04-06T10:44:32.929Z</time></trkpt><trkpt lat="45.6314801" lon="11.5147072"><ele>54.0</ele><time>2026-04-06T10:44:34.929Z</time></trkpt><trkpt lat="45.6314356" lon="11.5148111"><ele>54.0</ele><time>2026-04-06T10:44:37.931Z</time></trkpt><trkpt lat="45.6313854" lon="11.5149098"><ele>54.0</ele><time>2026-04-06T10:44:40.922Z</time></trkpt><trkpt lat="45.6313429" lon="11.5150169"><ele>54.0</ele><time>2026-04-06T10:44:43.924Z</time></trkpt><trkpt lat="45.6313134" lon="11.5150965"><ele>54.0</ele><time>2026-04-06T10:44:45.926Z</time></trkpt><trkpt lat="45.6312691" lon="11.5152133"><ele>54.0</ele><time>2026-04-06T10:44:48.928Z</time></trkpt><trkpt lat="45.6312281" lon="11.5152891"><ele>54.0</ele><time>2026-04-06T10:44:50.927Z</time></trkpt><trkpt lat="45.6311828" lon="11.515371"><ele>54.0</ele><time>2026-04-06T10:44:52.924Z</time></trkpt><trkpt lat="45.6311477" lon="11.5154612"><ele>54.0</ele><time>2026-04-06T10:44:54.926Z</time></trkpt><trkpt lat="45.6311228" lon="11.5155778"><ele>53.833333333333336</ele><time>2026-04-06T10:44:57.928Z</time></trkpt><trkpt lat="45.6310883" lon="11.5156747"><ele>53.66666666666667</ele><time>2026-04-06T10:45:00.932Z</time></trkpt><trkpt lat="45.6310625" lon="11.5157688"><ele>53.5</ele><time>2026-04-06T10:45:03.932Z</time></trkpt><trkpt lat="45.6310439" lon="11.5158703"><ele>53.333333333333336</ele><time>2026-04-06T10:45:06.93Z</time></trkpt><trkpt lat="45.6310211" lon="11.5159925"><ele>53.16666666666667</ele><time>2026-04-06T10:45:09.931Z</time></trkpt><trkpt lat="45.6309985" lon="11.516116"><ele>53.0</ele><time>2026-04-06T10:45:12.928Z</time></trkpt><trkpt lat="45.6309865" lon="11.5162299"><ele>53.00000000000001</ele><time>2026-04-06T10:45:15.927Z</time></trkpt><trkpt lat="45.6309546" lon="11.5163572"><ele>53.0</ele><time>2026-04-06T10:45:18.927Z</time></trkpt><trkpt lat="45.6309326" lon="11.5164822"><ele>53.0</ele><time>2026-04-06T10:45:21.926Z</time></trkpt><trkpt lat="45.6309128" lon="11.5165985"><ele>53.0</ele><time>2026-04-06T10:45:24.926Z</time></trkpt><trkpt lat="45.6308885" lon="11.5167235"><ele>53.00000000000001</ele><time>2026-04-06T10:45:27.925Z</time></trkpt><trkpt lat="45.6308812" lon="11.5168134"><ele>53.0</ele><time>2026-04-06T10:45:29.926Z</time></trkpt><trkpt lat="45.6308829" lon="11.516913"><ele>53.0</ele><time>2026-04-06T10:45:31.928Z</time></trkpt><trkpt lat="45.6308733" lon="11.5170051"><ele>53.0</ele><time>2026-04-06T10:45:33.928Z</time></trkpt><trkpt lat="45.630862" lon="11.5171013"><ele>53.0</ele><time>2026-04-06T10:45:35.927Z</time></trkpt><trkpt lat="45.630842" lon="11.5171959"><ele>53.0</ele><time>2026-04-06T10:45:37.929Z</time></trkpt><trkpt lat="45.6308244" lon="11.5172927"><ele>53.0</ele><time>2026-04-06T10:45:39.93Z</time></trkpt><trkpt lat="45.6308122" lon="11.5174166"><ele>53.0</ele><time>2026-04-06T10:45:42.927Z</time></trkpt><trkpt lat="45.6308051" lon="11.5175303"><ele>53.0</ele><time>2026-04-06T10:45:45.926Z</time></trkpt><trkpt lat="45.6307894" lon="11.51765"><ele>52.714285714285715</ele><time>2026-04-06T10:45:48.926Z</time></trkpt><trkpt lat="45.6307686" lon="11.5177356"><ele>52.42857142857142</ele><time>2026-04-06T10:45:50.927Z</time></trkpt><trkpt lat="45.630744" lon="11.5178217"><ele>52.14285714285714</ele><time>2026-04-06T10:45:52.928Z</time></trkpt><trkpt lat="45.630719" lon="11.5179046"><ele>51.85714285714286</ele><time>2026-04-06T10:45:54.928Z</time></trkpt><trkpt lat="45.6306842" lon="11.5179881"><ele>51.57142857142857</ele><time>2026-04-06T10:45:56.927Z</time></trkpt><trkpt lat="45.6306448" lon="11.5180728"><ele>51.285714285714285</ele><time>2026-04-06T10:45:58.929Z</time></trkpt><trkpt lat="45.6306035" lon="11.5181572"><ele>51.0</ele><time>2026-04-06T10:46:00.929Z</time></trkpt><trkpt lat="45.6305744" lon="11.51824"><ele>51.0</ele><time>2026-04-06T10:46:02.93Z</time></trkpt><trkpt lat="45.6305479" lon="11.5183332"><ele>51.0</ele><time>2026-04-06T10:46:04.927Z</time></trkpt><trkpt lat="45.6305283" lon="11.5184322"><ele>51.0</ele><time>2026-04-06T10:46:06.929Z</time></trkpt><trkpt lat="45.6305143" lon="11.5185261"><ele>51.0</ele><time>2026-04-06T10:46:08.929Z</time></trkpt><trkpt lat="45.6305008" lon="11.5186236"><ele>51.0</ele><time>2026-04-06T10:46:10.925Z</time></trkpt><trkpt lat="45.6304903" lon="11.5187541"><ele>51.0</ele><time>2026-04-06T10:46:13.928Z</time></trkpt><trkpt lat="45.6304852" lon="11.5188872"><ele>51.0</ele><time>2026-04-06T10:46:16.926Z</time></trkpt><trkpt lat="45.6304703" lon="11.5189854"><ele>51.0</ele><time>2026-04-06T10:46:18.927Z</time></trkpt><trkpt lat="45.6304535" lon="11.5190846"><ele>51.0</ele><time>2026-04-06T10:46:20.928Z</time></trkpt><trkpt lat="45.6304303" lon="11.5191888"><ele>51.0</ele><time>2026-04-06T10:46:22.928Z</time></trkpt><trkpt lat="45.6303957" lon="11.5192787"><ele>51.0</ele><time>2026-04-06T10:46:24.928Z</time></trkpt><trkpt lat="45.6303537" lon="11.519347"><ele>51.0</ele><time>2026-04-06T10:46:26.925Z</time></trkpt><trkpt lat="45.6303065" lon="11.5194067"><ele>51.0</ele><time>2026-04-06T10:46:28.927Z</time></trkpt><trkpt lat="45.6302543" lon="11.5194603"><ele>51.0</ele><time>2026-04-06T10:46:30.929Z</time></trkpt><trkpt lat="45.6301888" lon="11.5195271"><ele>51.0</ele><time>2026-04-06T10:46:33.928Z</time></trkpt><trkpt lat="45.6301215" lon="11.5195993"><ele>51.0</ele><time>2026-04-06T10:46:36.927Z</time></trkpt><trkpt lat="45.6300663" lon="11.5196835"><ele>51.0</ele><time>2026-04-06T10:46:39.927Z</time></trkpt><trkpt lat="45.6299963" lon="11.5197601"><ele>51.0</ele><time>2026-04-06T10:46:42.927Z</time></trkpt><trkpt lat="45.6299141" lon="11.5198109"><ele>51.0</ele><time>2026-04-06T10:46:45.92Z</time></trkpt><trkpt lat="45.6298342" lon="11.5198762"><ele>50.714285714285715</ele><time>2026-04-06T10:46:48.924Z</time></trkpt><trkpt lat="45.629778" lon="11.5199244"><ele>50.42857142857143</ele><time>2026-04-06T10:46:50.924Z</time></trkpt><trkpt lat="45.6297247" lon="11.5199731"><ele>50.14285714285714</ele><time>2026-04-06T10:46:52.926Z</time></trkpt><trkpt lat="45.6296707" lon="11.5200343"><ele>49.85714285714286</ele><time>2026-04-06T10:46:54.927Z</time></trkpt><trkpt lat="45.6296163" lon="11.5200862"><ele>49.57142857142857</ele><time>2026-04-06T10:46:56.924Z</time></trkpt><trkpt lat="45.6295615" lon="11.5201406"><ele>49.285714285714285</ele><time>2026-04-06T10:46:58.924Z</time></trkpt><trkpt lat="45.6295027" lon="11.5201905"><ele>49.0</ele><time>2026-04-06T10:47:00.926Z</time></trkpt><trkpt lat="45.6294496" lon="11.5202467"><ele>49.0</ele><time>2026-04-06T10:47:02.926Z</time></trkpt><trkpt lat="45.6293697" lon="11.5203186"><ele>49.0</ele><time>2026-04-06T10:47:05.925Z</time></trkpt><trkpt lat="45.6293117" lon="11.5203634"><ele>49.0</ele><time>2026-04-06T10:47:07.927Z</time></trkpt><trkpt lat="45.629254" lon="11.5204087"><ele>49.0</ele><time>2026-04-06T10:47:09.926Z</time></trkpt><trkpt lat="45.6291951" lon="11.5204484"><ele>49.0</ele><time>2026-04-06T10:47:11.924Z</time></trkpt><trkpt lat="45.6291288" lon="11.520497"><ele>49.0</ele><time>2026-04-06T10:47:14.924Z</time></trkpt><trkpt lat="45.6290579" lon="11.5205335"><ele>49.0</ele><time>2026-04-06T10:47:18.925Z</time></trkpt><trkpt lat="45.6289834" lon="11.5205718"><ele>49.0</ele><time>2026-04-06T10:47:22.93Z</time></trkpt><trkpt lat="45.6289102" lon="11.5205954"><ele>49.0</ele><time>2026-04-06T10:47:26.927Z</time></trkpt><trkpt lat="45.6288455" lon="11.5205935"><ele>49.0</ele><time>2026-04-06T10:47:30.928Z</time></trkpt><trkpt lat="45.6287969" lon="11.5206759"><ele>49.0</ele><time>2026-04-06T10:47:34.931Z</time></trkpt><trkpt lat="45.628746" lon="11.5207365"><ele>49.0</ele><time>2026-04-06T10:47:37.933Z</time></trkpt><trkpt lat="45.6286946" lon="11.5208074"><ele>49.0</ele><time>2026-04-06T10:48:21.926Z</time></trkpt><trkpt lat="45.6286331" lon="11.520903"><ele>49.0</ele><time>2026-04-06T10:48:24.932Z</time></trkpt><trkpt lat="45.628583" lon="11.5209747"><ele>48.99999999999999</ele><time>2026-04-06T10:48:26.932Z</time></trkpt><trkpt lat="45.6285363" lon="11.5210355"><ele>49.0</ele><time>2026-04-06T10:48:28.931Z</time></trkpt><trkpt lat="45.628485" lon="11.5211027"><ele>49.0</ele><time>2026-04-06T10:48:30.934Z</time></trkpt><trkpt lat="45.6284189" lon="11.5211798"><ele>49.0</ele><time>2026-04-06T10:48:32.937Z</time></trkpt><trkpt lat="45.6283498" lon="11.5212593"><ele>48.99999999999999</ele><time>2026-04-06T10:48:34.934Z</time></trkpt><trkpt lat="45.6282826" lon="11.5213239"><ele>49.0</ele><time>2026-04-06T10:48:36.934Z</time></trkpt><trkpt lat="45.6282135" lon="11.5213955"><ele>48.99999999999999</ele><time>2026-04-06T10:48:38.937Z</time></trkpt><trkpt lat="45.6281429" lon="11.5214542"><ele>49.0</ele><time>2026-04-06T10:48:40.936Z</time></trkpt><trkpt lat="45.6280738" lon="11.521521"><ele>49.0</ele><time>2026-04-06T10:48:42.939Z</time></trkpt><trkpt lat="45.6280088" lon="11.5215882"><ele>49.0</ele><time>2026-04-06T10:48:44.937Z</time></trkpt><trkpt lat="45.6279451" lon="11.5216451"><ele>48.99999999999999</ele><time>2026-04-06T10:48:46.93Z</time></trkpt><trkpt lat="45.6278836" lon="11.5216974"><ele>49.0</ele><time>2026-04-06T10:48:48.933Z</time></trkpt><trkpt lat="45.6278241" lon="11.5217534"><ele>48.857142857142854</ele><time>2026-04-06T10:48:50.932Z</time></trkpt><trkpt lat="45.6277638" lon="11.5218049"><ele>48.714285714285715</ele><time>2026-04-06T10:48:52.935Z</time></trkpt><trkpt lat="45.6277033" lon="11.5218535"><ele>48.57142857142857</ele><time>2026-04-06T10:48:54.932Z</time></trkpt><trkpt lat="45.6276478" lon="11.5219073"><ele>48.42857142857143</ele><time>2026-04-06T10:48:56.93Z</time></trkpt><trkpt lat="45.6275955" lon="11.5219668"><ele>48.285714285714285</ele><time>2026-04-06T10:48:58.929Z</time></trkpt><trkpt lat="45.6275371" lon="11.5220162"><ele>48.14285714285714</ele><time>2026-04-06T10:49:00.933Z</time></trkpt><trkpt lat="45.6274769" lon="11.5220597"><ele>48.0</ele><time>2026-04-06T10:49:02.932Z</time></trkpt><trkpt lat="45.627419" lon="11.5221167"><ele>47.99999999999999</ele><time>2026-04-06T10:49:04.931Z</time></trkpt><trkpt lat="45.6273642" lon="11.522178"><ele>48.0</ele><time>2026-04-06T10:49:06.932Z</time></trkpt><trkpt lat="45.6273049" lon="11.5222307"><ele>48.0</ele><time>2026-04-06T10:49:08.935Z</time></trkpt><trkpt lat="45.6272498" lon="11.5222955"><ele>48.0</ele><time>2026-04-06T10:49:10.929Z</time></trkpt><trkpt lat="45.6271926" lon="11.5223411"><ele>48.0</ele><time>2026-04-06T10:49:12.934Z</time></trkpt><trkpt lat="45.6271363" lon="11.522389"><ele>47.99999999999999</ele><time>2026-04-06T10:49:14.929Z</time></trkpt><trkpt lat="45.6270584" lon="11.5224655"><ele>48.0</ele><time>2026-04-06T10:49:17.929Z</time></trkpt><trkpt lat="45.6270034" lon="11.522514"><ele>47.99999999999999</ele><time>2026-04-06T10:49:19.929Z</time></trkpt><trkpt lat="45.6269425" lon="11.5225636"><ele>48.0</ele><time>2026-04-06T10:49:21.929Z</time></trkpt><trkpt lat="45.6268815" lon="11.5226193"><ele>48.0</ele><time>2026-04-06T10:49:23.929Z</time></trkpt><trkpt lat="45.6268193" lon="11.5226799"><ele>48.0</ele><time>2026-04-06T10:49:25.929Z</time></trkpt><trkpt lat="45.6267631" lon="11.5227353"><ele>48.0</ele><time>2026-04-06T10:49:27.93Z</time></trkpt><trkpt lat="45.6267064" lon="11.522798"><ele>47.99999999999999</ele><time>2026-04-06T10:49:29.929Z</time></trkpt><trkpt lat="45.6266463" lon="11.5228541"><ele>48.0</ele><time>2026-04-06T10:49:31.934Z</time></trkpt><trkpt lat="45.6265852" lon="11.5229106"><ele>47.99999999999999</ele><time>2026-04-06T10:49:33.933Z</time></trkpt><trkpt lat="45.6265204" lon="11.5229608"><ele>48.0</ele><time>2026-04-06T10:49:35.934Z</time></trkpt><trkpt lat="45.6264563" lon="11.5230036"><ele>48.0</ele><time>2026-04-06T10:49:37.933Z</time></trkpt><trkpt lat="45.6264003" lon="11.5230698"><ele>48.0</ele><time>2026-04-06T10:49:39.93Z</time></trkpt><trkpt lat="45.6263476" lon="11.5231293"><ele>48.0</ele><time>2026-04-06T10:49:41.93Z</time></trkpt><trkpt lat="45.6262944" lon="11.5231823"><ele>47.99999999999999</ele><time>2026-04-06T10:49:43.928Z</time></trkpt><trkpt lat="45.6262473" lon="11.5232486"><ele>48.0</ele><time>2026-04-06T10:49:45.928Z</time></trkpt><trkpt lat="45.6262708" lon="11.5233446"><ele>48.0</ele><time>2026-04-06T10:49:48.927Z</time></trkpt><trkpt lat="45.6263208" lon="11.5234452"><ele>48.0</ele><time>2026-04-06T10:49:51.928Z</time></trkpt><trkpt lat="45.6263436" lon="11.5235669"><ele>48.0</ele><time>2026-04-06T10:49:54.928Z</time></trkpt><trkpt lat="45.6263685" lon="11.5236644"><ele>48.0</ele><time>2026-04-06T10:49:56.929Z</time></trkpt><trkpt lat="45.6263819" lon="11.5237885"><ele>48.0</ele><time>2026-04-06T10:49:59.929Z</time></trkpt><trkpt lat="45.6263878" lon="11.5238811"><ele>48.0</ele><time>2026-04-06T10:50:01.932Z</time></trkpt><trkpt lat="45.6263983" lon="11.5239702"><ele>48.166666666666664</ele><time>2026-04-06T10:50:03.932Z</time></trkpt><trkpt lat="45.626422" lon="11.524055"><ele>48.33333333333333</ele><time>2026-04-06T10:50:05.929Z</time></trkpt><trkpt lat="45.626449" lon="11.5241436"><ele>48.5</ele><time>2026-04-06T10:50:07.932Z</time></trkpt><trkpt lat="45.6264563" lon="11.5242722"><ele>48.666666666666664</ele><time>2026-04-06T10:50:10.928Z</time></trkpt><trkpt lat="45.6265068" lon="11.5243675"><ele>48.83333333333333</ele><time>2026-04-06T10:50:13.931Z</time></trkpt><trkpt lat="45.6265541" lon="11.5244539"><ele>49.0</ele><time>2026-04-06T10:50:16.929Z</time></trkpt><trkpt lat="45.6265839" lon="11.5245552"><ele>49.166666666666664</ele><time>2026-04-06T10:50:19.93Z</time></trkpt><trkpt lat="45.6266291" lon="11.5246533"><ele>49.33333333333333</ele><time>2026-04-06T10:50:22.928Z</time></trkpt><trkpt lat="45.6266682" lon="11.5247302"><ele>49.5</ele><time>2026-04-06T10:50:24.93Z</time></trkpt><trkpt lat="45.6267234" lon="11.5248067"><ele>49.66666666666667</ele><time>2026-04-06T10:50:27.926Z</time></trkpt><trkpt lat="45.6267658" lon="11.5248947"><ele>49.833333333333336</ele><time>2026-04-06T10:50:30.933Z</time></trkpt><trkpt lat="45.6268062" lon="11.5250193"><ele>50.0</ele><time>2026-04-06T10:50:33.932Z</time></trkpt><trkpt lat="45.6268223" lon="11.5251177"><ele>50.00000000000001</ele><time>2026-04-06T10:50:35.932Z</time></trkpt><trkpt lat="45.6268422" lon="11.5252268"><ele>50.0</ele><time>2026-04-06T10:50:38.931Z</time></trkpt><trkpt lat="45.626861" lon="11.5253556"><ele>50.0</ele><time>2026-04-06T10:50:41.928Z</time></trkpt><trkpt lat="45.6268627" lon="11.5254504"><ele>50.0</ele><time>2026-04-06T10:50:43.928Z</time></trkpt><trkpt lat="45.6268944" lon="11.5255704"><ele>50.00000000000001</ele><time>2026-04-06T10:50:46.926Z</time></trkpt><trkpt lat="45.626938" lon="11.5256716"><ele>50.0</ele><time>2026-04-06T10:50:49.925Z</time></trkpt><trkpt lat="45.6269804" lon="11.5257678"><ele>50.16666666666667</ele><time>2026-04-06T10:50:52.926Z</time></trkpt><trkpt lat="45.6270114" lon="11.5258952"><ele>50.333333333333336</ele><time>2026-04-06T10:50:55.927Z</time></trkpt><trkpt lat="45.6270402" lon="11.526005"><ele>50.5</ele><time>2026-04-06T10:50:58.926Z</time></trkpt><trkpt lat="45.6270349" lon="11.5261159"><ele>50.66666666666667</ele><time>2026-04-06T10:51:01.932Z</time></trkpt><trkpt lat="45.6269945" lon="11.5262173"><ele>50.833333333333336</ele><time>2026-04-06T10:51:04.933Z</time></trkpt><trkpt lat="45.6269519" lon="11.5263029"><ele>51.0</ele><time>2026-04-06T10:51:07.932Z</time></trkpt><trkpt lat="45.6269022" lon="11.5263995"><ele>51.0</ele><time>2026-04-06T10:51:10.927Z</time></trkpt><trkpt lat="45.6268574" lon="11.5265167"><ele>51.0</ele><time>2026-04-06T10:51:13.931Z</time></trkpt><trkpt lat="45.6268277" lon="11.5266221"><ele>51.0</ele><time>2026-04-06T10:51:16.929Z</time></trkpt><trkpt lat="45.6268043" lon="11.5267407"><ele>51.0</ele><time>2026-04-06T10:51:19.931Z</time></trkpt><trkpt lat="45.6267641" lon="11.5268469"><ele>51.0</ele><time>2026-04-06T10:51:22.931Z</time></trkpt><trkpt lat="45.6267175" lon="11.5269526"><ele>51.0</ele><time>2026-04-06T10:51:25.93Z</time></trkpt><trkpt lat="45.6266728" lon="11.5270398"><ele>50.714285714285715</ele><time>2026-04-06T10:51:28.93Z</time></trkpt><trkpt lat="45.6266345" lon="11.5271307"><ele>50.42857142857143</ele><time>2026-04-06T10:51:31.933Z</time></trkpt><trkpt lat="45.6265907" lon="11.5272208"><ele>50.14285714285714</ele><time>2026-04-06T10:51:34.932Z</time></trkpt><trkpt lat="45.6266069" lon="11.5273136"><ele>49.85714285714286</ele><time>2026-04-06T10:51:39.932Z</time></trkpt><trkpt lat="45.6266726" lon="11.5273589"><ele>49.57142857142857</ele><time>2026-04-06T10:51:43.93Z</time></trkpt><trkpt lat="45.6267271" lon="11.5274245"><ele>49.285714285714285</ele><time>2026-04-06T10:51:46.929Z</time></trkpt><trkpt lat="45.6267894" lon="11.5274975"><ele>49.0</ele><time>2026-04-06T10:51:49.93Z</time></trkpt><trkpt lat="45.6268544" lon="11.527536"><ele>48.99999999999999</ele><time>2026-04-06T10:51:52.93Z</time></trkpt><trkpt lat="45.6269368" lon="11.5275934"><ele>49.0</ele><time>2026-04-06T10:51:55.934Z</time></trkpt><trkpt lat="45.6269935" lon="11.5276552"><ele>49.0</ele><time>2026-04-06T10:51:58.928Z</time></trkpt><trkpt lat="45.6270366" lon="11.5277474"><ele>49.0</ele><time>2026-04-06T10:52:01.933Z</time></trkpt><trkpt lat="45.6270728" lon="11.527828"><ele>48.99999999999999</ele><time>2026-04-06T10:52:03.931Z</time></trkpt><trkpt lat="45.62711" lon="11.5279048"><ele>49.0</ele><time>2026-04-06T10:52:05.932Z</time></trkpt><trkpt lat="45.6271638" lon="11.5280056"><ele>48.57142857142857</ele><time>2026-04-06T10:52:08.933Z</time></trkpt><trkpt lat="45.6272033" lon="11.5280798"><ele>48.14285714285714</ele><time>2026-04-06T10:52:10.93Z</time></trkpt><trkpt lat="45.6272424" lon="11.5281567"><ele>47.714285714285715</ele><time>2026-04-06T10:52:12.931Z</time></trkpt><trkpt lat="45.6272866" lon="11.5282287"><ele>47.285714285714285</ele><time>2026-04-06T10:52:14.93Z</time></trkpt><trkpt lat="45.6273242" lon="11.5283088"><ele>46.857142857142854</ele><time>2026-04-06T10:52:16.93Z</time></trkpt><trkpt lat="45.6273613" lon="11.5283827"><ele>46.42857142857143</ele><time>2026-04-06T10:52:18.929Z</time></trkpt><trkpt lat="45.6274038" lon="11.5284783"><ele>46.0</ele><time>2026-04-06T10:52:21.93Z</time></trkpt><trkpt lat="45.6274779" lon="11.5285529"><ele>46.0</ele><time>2026-04-06T10:52:24.932Z</time></trkpt><trkpt lat="45.6275371" lon="11.5286191"><ele>46.0</ele><time>2026-04-06T10:52:27.932Z</time></trkpt><trkpt lat="45.6275912" lon="11.5287023"><ele>46.0</ele><time>2026-04-06T10:52:30.93Z</time></trkpt><trkpt lat="45.6276291" lon="11.5287746"><ele>46.0</ele><time>2026-04-06T10:52:32.935Z</time></trkpt><trkpt lat="45.6276712" lon="11.5288465"><ele>46.0</ele><time>2026-04-06T10:52:34.932Z</time></trkpt><trkpt lat="45.6277133" lon="11.528918"><ele>46.0</ele><time>2026-04-06T10:52:36.932Z</time></trkpt><trkpt lat="45.6277621" lon="11.5290142"><ele>46.0</ele><time>2026-04-06T10:52:39.932Z</time></trkpt><trkpt lat="45.6278047" lon="11.5291297"><ele>46.333333333333336</ele><time>2026-04-06T10:52:42.93Z</time></trkpt><trkpt lat="45.6278338" lon="11.5292354"><ele>46.66666666666667</ele><time>2026-04-06T10:52:45.931Z</time></trkpt><trkpt lat="45.6278857" lon="11.5293091"><ele>47.0</ele><time>2026-04-06T10:52:50.931Z</time></trkpt><trkpt lat="45.6279612" lon="11.5293074"><ele>47.333333333333336</ele><time>2026-04-06T10:52:53.924Z</time></trkpt><trkpt lat="45.6280276" lon="11.5292319"><ele>47.666666666666664</ele><time>2026-04-06T10:52:57.927Z</time></trkpt><trkpt lat="45.6280963" lon="11.5291441"><ele>48.0</ele><time>2026-04-06T10:53:00.932Z</time></trkpt><trkpt lat="45.6281428" lon="11.5290501"><ele>48.0</ele><time>2026-04-06T10:53:03.932Z</time></trkpt><trkpt lat="45.6282139" lon="11.5289853"><ele>48.0</ele><time>2026-04-06T10:53:06.934Z</time></trkpt><trkpt lat="45.62829" lon="11.5289372"><ele>48.0</ele><time>2026-04-06T10:53:09.934Z</time></trkpt><trkpt lat="45.6283679" lon="11.5289121"><ele>48.0</ele><time>2026-04-06T10:53:12.924Z</time></trkpt><trkpt lat="45.6284309" lon="11.5288956"><ele>48.0</ele><time>2026-04-06T10:53:14.93Z</time></trkpt><trkpt lat="45.6285123" lon="11.5288867"><ele>48.0</ele><time>2026-04-06T10:53:17.932Z</time></trkpt><trkpt lat="45.6285787" lon="11.5288716"><ele>47.99999999999999</ele><time>2026-04-06T10:53:20.93Z</time></trkpt><trkpt lat="45.6286296" lon="11.5288186"><ele>48.0</ele><time>2026-04-06T10:53:23.93Z</time></trkpt><trkpt lat="45.6286709" lon="11.5287241"><ele>48.0</ele><time>2026-04-06T10:55:29.934Z</time></trkpt><trkpt lat="45.6286999" lon="11.5286212"><ele>48.0</ele><time>2026-04-06T10:55:33.933Z</time></trkpt><trkpt lat="45.628739" lon="11.528545"><ele>48.0</ele><time>2026-04-06T10:55:36.933Z</time></trkpt><trkpt lat="45.6287798" lon="11.5284544"><ele>47.99999999999999</ele><time>2026-04-06T10:55:39.93Z</time></trkpt><trkpt lat="45.6288226" lon="11.5283648"><ele>48.0</ele><time>2026-04-06T10:55:43.93Z</time></trkpt><trkpt lat="45.6288711" lon="11.5283009"><ele>48.14285714285714</ele><time>2026-04-06T10:55:46.933Z</time></trkpt><trkpt lat="45.6289238" lon="11.5282435"><ele>48.285714285714285</ele><time>2026-04-06T10:55:49.931Z</time></trkpt><trkpt lat="45.6289684" lon="11.5281784"><ele>48.42857142857143</ele><time>2026-04-06T10:55:52.931Z</time></trkpt><trkpt lat="45.6290436" lon="11.5281382"><ele>48.57142857142857</ele><time>2026-04-06T10:55:55.93Z</time></trkpt><trkpt lat="45.6291173" lon="11.5280871"><ele>48.714285714285715</ele><time>2026-04-06T10:55:58.929Z</time></trkpt><trkpt lat="45.6291856" lon="11.5280517"><ele>48.857142857142854</ele><time>2026-04-06T10:56:02.933Z</time></trkpt><trkpt lat="45.6292645" lon="11.5280433"><ele>49.0</ele><time>2026-04-06T10:56:04.932Z</time></trkpt><trkpt lat="45.6293536" lon="11.528053"><ele>49.0</ele><time>2026-04-06T10:56:06.933Z</time></trkpt><trkpt lat="45.6294259" lon="11.528064"><ele>49.0</ele><time>2026-04-06T10:56:08.926Z</time></trkpt><trkpt lat="45.6294955" lon="11.5280825"><ele>49.0</ele><time>2026-04-06T10:56:10.93Z</time></trkpt><trkpt lat="45.6295712" lon="11.5280935"><ele>49.0</ele><time>2026-04-06T10:56:12.93Z</time></trkpt><trkpt lat="45.6296478" lon="11.5281023"><ele>49.0</ele><time>2026-04-06T10:56:14.93Z</time></trkpt><trkpt lat="45.6297179" lon="11.5280924"><ele>49.0</ele><time>2026-04-06T10:56:16.93Z</time></trkpt><trkpt lat="45.6297909" lon="11.5280853"><ele>49.0</ele><time>2026-04-06T10:56:19.93Z</time></trkpt><trkpt lat="45.629855" lon="11.5281055"><ele>49.0</ele><time>2026-04-06T10:56:28.93Z</time></trkpt><trkpt lat="45.6299231" lon="11.5281114"><ele>49.0</ele><time>2026-04-06T10:56:55.932Z</time></trkpt><trkpt lat="45.6300791" lon="11.528141"><ele>49.0</ele><time>2026-04-06T10:57:17.933Z</time></trkpt><trkpt lat="45.6301345" lon="11.5281986"><ele>49.0</ele><time>2026-04-06T10:57:48.933Z</time></trkpt><trkpt lat="45.6302064" lon="11.5282628"><ele>49.0</ele><time>2026-04-06T10:58:02.933Z</time></trkpt><trkpt lat="45.6302667" lon="11.5283209"><ele>48.99999999999999</ele><time>2026-04-06T10:58:07.934Z</time></trkpt><trkpt lat="45.630346" lon="11.5283922"><ele>49.0</ele><time>2026-04-06T10:58:11.932Z</time></trkpt><trkpt lat="45.630419" lon="11.5284415"><ele>49.0</ele><time>2026-04-06T10:58:14.929Z</time></trkpt><trkpt lat="45.6304978" lon="11.5284853"><ele>49.0</ele><time>2026-04-06T10:58:16.931Z</time></trkpt><trkpt lat="45.6305706" lon="11.5285385"><ele>48.99999999999999</ele><time>2026-04-06T10:58:19.929Z</time></trkpt><trkpt lat="45.6306461" lon="11.5285899"><ele>49.0</ele><time>2026-04-06T10:58:23.928Z</time></trkpt><trkpt lat="45.6307139" lon="11.5286573"><ele>48.99999999999999</ele><time>2026-04-06T10:58:26.93Z</time></trkpt><trkpt lat="45.6308014" lon="11.5286781"><ele>49.0</ele><time>2026-04-06T10:58:29.928Z</time></trkpt><trkpt lat="45.6308886" lon="11.528663"><ele>49.0</ele><time>2026-04-06T10:58:32.933Z</time></trkpt><trkpt lat="45.6309573" lon="11.5286265"><ele>49.0</ele><time>2026-04-06T10:58:35.931Z</time></trkpt><trkpt lat="45.6310303" lon="11.5286734"><ele>48.99999999999999</ele><time>2026-04-06T10:58:39.931Z</time></trkpt><trkpt lat="45.6310401" lon="11.5287672"><ele>49.0</ele><time>2026-04-06T10:58:42.929Z</time></trkpt><trkpt lat="45.6310813" lon="11.5288389"><ele>48.99999999999999</ele><time>2026-04-06T10:58:43.932Z</time></trkpt><trkpt lat="45.6310638" lon="11.5289385"><ele>49.0</ele><time>2026-04-06T10:58:48.932Z</time></trkpt><trkpt lat="45.6311075" lon="11.5290344"><ele>49.0</ele><time>2026-04-06T10:58:51.93Z</time></trkpt><trkpt lat="45.6311039" lon="11.5291449"><ele>49.0</ele><time>2026-04-06T10:58:57.926Z</time></trkpt><trkpt lat="45.6310959" lon="11.5292541"><ele>48.99999999999999</ele><time>2026-04-06T10:59:01.935Z</time></trkpt><trkpt lat="45.6310857" lon="11.5293484"><ele>49.0</ele><time>2026-04-06T10:59:04.934Z</time></trkpt><trkpt lat="45.6310806" lon="11.5294693"><ele>49.166666666666664</ele><time>2026-04-06T10:59:08.932Z</time></trkpt><trkpt lat="45.6310739" lon="11.5295947"><ele>49.33333333333333</ele><time>2026-04-06T10:59:11.929Z</time></trkpt><trkpt lat="45.6310785" lon="11.5297209"><ele>49.5</ele><time>2026-04-06T10:59:14.93Z</time></trkpt><trkpt lat="45.631084" lon="11.5298488"><ele>49.66666666666667</ele><time>2026-04-06T10:59:17.931Z</time></trkpt><trkpt lat="45.6310835" lon="11.5299802"><ele>49.833333333333336</ele><time>2026-04-06T10:59:20.928Z</time></trkpt><trkpt lat="45.6310597" lon="11.530077"><ele>50.0</ele><time>2026-04-06T10:59:22.931Z</time></trkpt><trkpt lat="45.6310317" lon="11.5301692"><ele>50.00000000000001</ele><time>2026-04-06T10:59:24.93Z</time></trkpt><trkpt lat="45.630988" lon="11.5302701"><ele>50.0</ele><time>2026-04-06T10:59:27.932Z</time></trkpt><trkpt lat="45.6309326" lon="11.530351"><ele>50.0</ele><time>2026-04-06T10:59:30.933Z</time></trkpt><trkpt lat="45.6308889" lon="11.5304334"><ele>50.0</ele><time>2026-04-06T10:59:33.933Z</time></trkpt><trkpt lat="45.6308705" lon="11.5305221"><ele>50.0</ele><time>2026-04-06T10:59:36.932Z</time></trkpt><trkpt lat="45.6308488" lon="11.5306204"><ele>50.00000000000001</ele><time>2026-04-06T10:59:39.933Z</time></trkpt><trkpt lat="45.6308276" lon="11.5307189"><ele>50.0</ele><time>2026-04-06T10:59:42.928Z</time></trkpt><trkpt lat="45.630796" lon="11.5308166"><ele>50.00000000000001</ele><time>2026-04-06T10:59:45.929Z</time></trkpt><trkpt lat="45.6307678" lon="11.5309368"><ele>50.0</ele><time>2026-04-06T10:59:48.931Z</time></trkpt><trkpt lat="45.6307423" lon="11.5310544"><ele>50.0</ele><time>2026-04-06T10:59:51.93Z</time></trkpt><trkpt lat="45.6307103" lon="11.5311793"><ele>50.0</ele><time>2026-04-06T10:59:54.924Z</time></trkpt><trkpt lat="45.6306786" lon="11.5313095"><ele>50.00000000000001</ele><time>2026-04-06T10:59:57.93Z</time></trkpt><trkpt lat="45.6306476" lon="11.5314046"><ele>50.0</ele><time>2026-04-06T10:59:59.931Z</time></trkpt><trkpt lat="45.6306081" lon="11.5315086"><ele>49.8</ele><time>2026-04-06T11:00:01.924Z</time></trkpt><trkpt lat="45.6305712" lon="11.5316192"><ele>49.6</ele><time>2026-04-06T11:00:03.927Z</time></trkpt><trkpt lat="45.6305443" lon="11.5317369"><ele>49.400000000000006</ele><time>2026-04-06T11:00:05.928Z</time></trkpt><trkpt lat="45.6305183" lon="11.5318578"><ele>49.2</ele><time>2026-04-06T11:00:07.927Z</time></trkpt><trkpt lat="45.6304876" lon="11.5319879"><ele>49.0</ele><time>2026-04-06T11:00:09.924Z</time></trkpt><trkpt lat="45.6304617" lon="11.5321155"><ele>48.99999999999999</ele><time>2026-04-06T11:00:11.929Z</time></trkpt><trkpt lat="45.6304273" lon="11.5322058"><ele>49.0</ele><time>2026-04-06T11:00:13.931Z</time></trkpt><trkpt lat="45.6303752" lon="11.5323105"><ele>49.0</ele><time>2026-04-06T11:00:16.929Z</time></trkpt><trkpt lat="45.630344" lon="11.5324004"><ele>49.0</ele><time>2026-04-06T11:00:18.93Z</time></trkpt><trkpt lat="45.6303151" lon="11.5324942"><ele>48.99999999999999</ele><time>2026-04-06T11:00:20.927Z</time></trkpt><trkpt lat="45.6302949" lon="11.5326072"><ele>49.0</ele><time>2026-04-06T11:00:23.929Z</time></trkpt><trkpt lat="45.6302598" lon="11.5327268"><ele>49.0</ele><time>2026-04-06T11:00:26.931Z</time></trkpt><trkpt lat="45.6302303" lon="11.5328216"><ele>49.0</ele><time>2026-04-06T11:00:28.928Z</time></trkpt><trkpt lat="45.6302018" lon="11.5329107"><ele>49.0</ele><time>2026-04-06T11:00:30.926Z</time></trkpt><trkpt lat="45.6301762" lon="11.5329931"><ele>49.0</ele><time>2026-04-06T11:00:32.927Z</time></trkpt><trkpt lat="45.6301471" lon="11.5331129"><ele>49.0</ele><time>2026-04-06T11:00:35.924Z</time></trkpt><trkpt lat="45.6301251" lon="11.5332151"><ele>49.0</ele><time>2026-04-06T11:00:38.928Z</time></trkpt><trkpt lat="45.6300483" lon="11.5332342"><ele>49.0</ele><time>2026-04-06T11:00:43.928Z</time></trkpt><trkpt lat="45.6299871" lon="11.5331951"><ele>49.0</ele><time>2026-04-06T11:00:46.93Z</time></trkpt><trkpt lat="45.6299229" lon="11.5331965"><ele>49.0</ele><time>2026-04-06T11:00:51.929Z</time></trkpt><trkpt lat="45.6299089" lon="11.5332974"><ele>49.0</ele><time>2026-04-06T11:01:03.928Z</time></trkpt><trkpt lat="45.6298941" lon="11.5333897"><ele>49.0</ele><time>2026-04-06T11:01:07.928Z</time></trkpt><trkpt lat="45.6298814" lon="11.5334865"><ele>49.0</ele><time>2026-04-06T11:01:10.924Z</time></trkpt><trkpt lat="45.6298913" lon="11.5335994"><ele>49.0</ele><time>2026-04-06T11:01:13.928Z</time></trkpt><trkpt lat="45.629899" lon="11.5337355"><ele>49.0</ele><time>2026-04-06T11:01:16.926Z</time></trkpt><trkpt lat="45.6298935" lon="11.5338358"><ele>48.99999999999999</ele><time>2026-04-06T11:01:18.929Z</time></trkpt><trkpt lat="45.6298878" lon="11.533947"><ele>49.0</ele><time>2026-04-06T11:01:20.928Z</time></trkpt><trkpt lat="45.6298884" lon="11.53407"><ele>49.0</ele><time>2026-04-06T11:01:22.931Z</time></trkpt><trkpt lat="45.6298886" lon="11.5341906"><ele>49.0</ele><time>2026-04-06T11:01:24.929Z</time></trkpt><trkpt lat="45.6298958" lon="11.5343149"><ele>48.99999999999999</ele><time>2026-04-06T11:01:26.929Z</time></trkpt><trkpt lat="45.6299089" lon="11.5344434"><ele>49.0</ele><time>2026-04-06T11:01:28.927Z</time></trkpt><trkpt lat="45.6299221" lon="11.534565"><ele>48.99999999999999</ele><time>2026-04-06T11:01:30.927Z</time></trkpt><trkpt lat="45.6299254" lon="11.5346743"><ele>49.0</ele><time>2026-04-06T11:01:32.925Z</time></trkpt><trkpt lat="45.629943" lon="11.5347704"><ele>49.0</ele><time>2026-04-06T11:01:34.926Z</time></trkpt><trkpt lat="45.6299692" lon="11.5348963"><ele>49.0</ele><time>2026-04-06T11:01:37.923Z</time></trkpt><trkpt lat="45.6299873" lon="11.5349887"><ele>48.99999999999999</ele><time>2026-04-06T11:01:39.923Z</time></trkpt><trkpt lat="45.630032" lon="11.5350964"><ele>49.0</ele><time>2026-04-06T11:01:41.924Z</time></trkpt><trkpt lat="45.6300549" lon="11.5351956"><ele>49.0</ele><time>2026-04-06T11:01:43.926Z</time></trkpt><trkpt lat="45.6300763" lon="11.5352906"><ele>49.0</ele><time>2026-04-06T11:01:45.928Z</time></trkpt><trkpt lat="45.6300946" lon="11.535407"><ele>49.0</ele><time>2026-04-06T11:01:48.928Z</time></trkpt><trkpt lat="45.6301186" lon="11.5355349"><ele>49.0</ele><time>2026-04-06T11:01:51.926Z</time></trkpt><trkpt lat="45.6301501" lon="11.5356218"><ele>49.0</ele><time>2026-04-06T11:01:53.926Z</time></trkpt><trkpt lat="45.6301787" lon="11.5357125"><ele>49.0</ele><time>2026-04-06T11:01:55.925Z</time></trkpt><trkpt lat="45.6302114" lon="11.5357913"><ele>49.0</ele><time>2026-04-06T11:01:57.927Z</time></trkpt><trkpt lat="45.6302652" lon="11.5359082"><ele>48.99999999999999</ele><time>2026-04-06T11:02:00.925Z</time></trkpt><trkpt lat="45.6302967" lon="11.5359971"><ele>49.0</ele><time>2026-04-06T11:02:02.924Z</time></trkpt><trkpt lat="45.6303379" lon="11.5360801"><ele>49.0</ele><time>2026-04-06T11:02:04.924Z</time></trkpt><trkpt lat="45.6303735" lon="11.5361602"><ele>49.0</ele><time>2026-04-06T11:02:06.923Z</time></trkpt><trkpt lat="45.6304299" lon="11.5362573"><ele>48.99999999999999</ele><time>2026-04-06T11:02:09.922Z</time></trkpt><trkpt lat="45.6304914" lon="11.5363386"><ele>49.0</ele><time>2026-04-06T11:02:12.925Z</time></trkpt><trkpt lat="45.6305359" lon="11.5364543"><ele>49.166666666666664</ele><time>2026-04-06T11:02:15.922Z</time></trkpt><trkpt lat="45.6305826" lon="11.5365523"><ele>49.33333333333333</ele><time>2026-04-06T11:02:18.924Z</time></trkpt><trkpt lat="45.6306152" lon="11.5366736"><ele>49.5</ele><time>2026-04-06T11:02:21.926Z</time></trkpt><trkpt lat="45.6306392" lon="11.536766"><ele>49.66666666666667</ele><time>2026-04-06T11:02:23.923Z</time></trkpt><trkpt lat="45.6306577" lon="11.5368579"><ele>49.833333333333336</ele><time>2026-04-06T11:02:25.925Z</time></trkpt><trkpt lat="45.6306575" lon="11.5369514"><ele>50.0</ele><time>2026-04-06T11:02:27.927Z</time></trkpt><trkpt lat="45.6306751" lon="11.5370822"><ele>49.66666666666667</ele><time>2026-04-06T11:02:30.928Z</time></trkpt><trkpt lat="45.6306898" lon="11.5372124"><ele>49.333333333333336</ele><time>2026-04-06T11:02:33.929Z</time></trkpt><trkpt lat="45.6307076" lon="11.5373416"><ele>49.0</ele><time>2026-04-06T11:02:36.928Z</time></trkpt><trkpt lat="45.6307087" lon="11.537439"><ele>48.66666666666667</ele><time>2026-04-06T11:02:38.928Z</time></trkpt><trkpt lat="45.6307152" lon="11.537558"><ele>48.333333333333336</ele><time>2026-04-06T11:02:41.928Z</time></trkpt><trkpt lat="45.6307364" lon="11.5376867"><ele>48.0</ele><time>2026-04-06T11:02:44.925Z</time></trkpt><trkpt lat="45.6307598" lon="11.5377816"><ele>47.99999999999999</ele><time>2026-04-06T11:02:46.929Z</time></trkpt><trkpt lat="45.6307826" lon="11.5378718"><ele>48.0</ele><time>2026-04-06T11:02:48.929Z</time></trkpt><trkpt lat="45.6307992" lon="11.5379605"><ele>48.0</ele><time>2026-04-06T11:02:50.928Z</time></trkpt><trkpt lat="45.6308286" lon="11.5380496"><ele>48.0</ele><time>2026-04-06T11:02:52.929Z</time></trkpt><trkpt lat="45.6308798" lon="11.5381331"><ele>48.0</ele><time>2026-04-06T11:02:54.928Z</time></trkpt><trkpt lat="45.6309347" lon="11.5382134"><ele>47.99999999999999</ele><time>2026-04-06T11:02:56.928Z</time></trkpt><trkpt lat="45.6310032" lon="11.5382862"><ele>48.0</ele><time>2026-04-06T11:02:58.926Z</time></trkpt><trkpt lat="45.6310765" lon="11.5383461"><ele>48.14285714285714</ele><time>2026-04-06T11:03:00.929Z</time></trkpt><trkpt lat="45.6311488" lon="11.538396"><ele>48.285714285714285</ele><time>2026-04-06T11:03:02.929Z</time></trkpt><trkpt lat="45.6312158" lon="11.5384471"><ele>48.42857142857143</ele><time>2026-04-06T11:03:04.931Z</time></trkpt><trkpt lat="45.6312751" lon="11.5385071"><ele>48.57142857142857</ele><time>2026-04-06T11:03:06.928Z</time></trkpt><trkpt lat="45.6313262" lon="11.5385899"><ele>48.714285714285715</ele><time>2026-04-06T11:03:08.928Z</time></trkpt><trkpt lat="45.6313554" lon="11.5386806"><ele>48.857142857142854</ele><time>2026-04-06T11:03:10.927Z</time></trkpt><trkpt lat="45.6313561" lon="11.5387793"><ele>49.0</ele><time>2026-04-06T11:03:12.927Z</time></trkpt><trkpt lat="45.6313558" lon="11.5388878"><ele>49.142857142857146</ele><time>2026-04-06T11:03:14.928Z</time></trkpt><trkpt lat="45.6313572" lon="11.5390007"><ele>49.285714285714285</ele><time>2026-04-06T11:03:16.929Z</time></trkpt><trkpt lat="45.6313463" lon="11.5391014"><ele>49.42857142857143</ele><time>2026-04-06T11:03:18.928Z</time></trkpt><trkpt lat="45.6313322" lon="11.5391942"><ele>49.57142857142857</ele><time>2026-04-06T11:03:20.93Z</time></trkpt><trkpt lat="45.6313191" lon="11.5392832"><ele>49.714285714285715</ele><time>2026-04-06T11:03:22.934Z</time></trkpt><trkpt lat="45.63129" lon="11.5393734"><ele>49.85714285714286</ele><time>2026-04-06T11:03:24.93Z</time></trkpt><trkpt lat="45.6312796" lon="11.5394648"><ele>50.0</ele><time>2026-04-06T11:03:26.931Z</time></trkpt><trkpt lat="45.6312698" lon="11.5395968"><ele>50.28571428571429</ele><time>2026-04-06T11:03:29.929Z</time></trkpt><trkpt lat="45.6312589" lon="11.539692"><ele>50.57142857142857</ele><time>2026-04-06T11:03:31.93Z</time></trkpt><trkpt lat="45.6312372" lon="11.5397861"><ele>50.85714285714286</ele><time>2026-04-06T11:03:33.922Z</time></trkpt><trkpt lat="45.6312178" lon="11.539878"><ele>51.142857142857146</ele><time>2026-04-06T11:03:35.929Z</time></trkpt><trkpt lat="45.631194" lon="11.5399865"><ele>51.42857142857143</ele><time>2026-04-06T11:03:38.929Z</time></trkpt><trkpt lat="45.6311889" lon="11.5400801"><ele>51.714285714285715</ele><time>2026-04-06T11:03:41.926Z</time></trkpt><trkpt lat="45.6312217" lon="11.5401646"><ele>52.0</ele><time>2026-04-06T11:04:38.931Z</time></trkpt><trkpt lat="45.6312414" lon="11.5402789"><ele>51.83333333333333</ele><time>2026-04-06T11:04:43.926Z</time></trkpt><trkpt lat="45.6312433" lon="11.5403907"><ele>51.666666666666664</ele><time>2026-04-06T11:04:46.93Z</time></trkpt><trkpt lat="45.6312456" lon="11.5404842"><ele>51.5</ele><time>2026-04-06T11:04:48.926Z</time></trkpt><trkpt lat="45.6312496" lon="11.5405969"><ele>51.33333333333333</ele><time>2026-04-06T11:04:50.929Z</time></trkpt><trkpt lat="45.6312584" lon="11.5407208"><ele>51.166666666666664</ele><time>2026-04-06T11:04:52.929Z</time></trkpt><trkpt lat="45.6312717" lon="11.5408472"><ele>51.0</ele><time>2026-04-06T11:04:54.929Z</time></trkpt><trkpt lat="45.6312787" lon="11.5409718"><ele>51.0</ele><time>2026-04-06T11:04:56.926Z</time></trkpt><trkpt lat="45.6312827" lon="11.5410971"><ele>51.0</ele><time>2026-04-06T11:04:58.929Z</time></trkpt><trkpt lat="45.6312849" lon="11.5412263"><ele>51.0</ele><time>2026-04-06T11:05:00.929Z</time></trkpt><trkpt lat="45.6313044" lon="11.5413527"><ele>51.0</ele><time>2026-04-06T11:05:02.93Z</time></trkpt><trkpt lat="45.631322" lon="11.5414654"><ele>51.0</ele><time>2026-04-06T11:05:04.923Z</time></trkpt><trkpt lat="45.6313185" lon="11.5415658"><ele>51.0</ele><time>2026-04-06T11:05:06.931Z</time></trkpt><trkpt lat="45.6313142" lon="11.5416899"><ele>50.833333333333336</ele><time>2026-04-06T11:05:08.932Z</time></trkpt><trkpt lat="45.6313207" lon="11.5418241"><ele>50.66666666666667</ele><time>2026-04-06T11:05:10.93Z</time></trkpt><trkpt lat="45.6313406" lon="11.5419614"><ele>50.5</ele><time>2026-04-06T11:05:12.929Z</time></trkpt><trkpt lat="45.6313479" lon="11.5420864"><ele>50.333333333333336</ele><time>2026-04-06T11:05:14.93Z</time></trkpt><trkpt lat="45.63137" lon="11.5422044"><ele>50.16666666666667</ele><time>2026-04-06T11:05:16.929Z</time></trkpt><trkpt lat="45.6313738" lon="11.5423144"><ele>50.0</ele><time>2026-04-06T11:05:18.93Z</time></trkpt><trkpt lat="45.6313818" lon="11.5424202"><ele>50.00000000000001</ele><time>2026-04-06T11:05:20.931Z</time></trkpt><trkpt lat="45.631387" lon="11.5425237"><ele>50.0</ele><time>2026-04-06T11:05:22.929Z</time></trkpt><trkpt lat="45.6314055" lon="11.542638"><ele>50.0</ele><time>2026-04-06T11:05:24.931Z</time></trkpt><trkpt lat="45.6314152" lon="11.5427512"><ele>50.0</ele><time>2026-04-06T11:05:26.93Z</time></trkpt><trkpt lat="45.6314239" lon="11.5428657"><ele>50.00000000000001</ele><time>2026-04-06T11:05:28.93Z</time></trkpt><trkpt lat="45.6314254" lon="11.5429805"><ele>50.0</ele><time>2026-04-06T11:05:30.931Z</time></trkpt><trkpt lat="45.6314281" lon="11.5430951"><ele>50.00000000000001</ele><time>2026-04-06T11:05:32.931Z</time></trkpt><trkpt lat="45.631432" lon="11.5432178"><ele>50.0</ele><time>2026-04-06T11:05:34.932Z</time></trkpt><trkpt lat="45.6314452" lon="11.5433419"><ele>50.0</ele><time>2026-04-06T11:05:36.931Z</time></trkpt><trkpt lat="45.6314572" lon="11.543465"><ele>50.0</ele><time>2026-04-06T11:05:38.928Z</time></trkpt><trkpt lat="45.6314597" lon="11.5435861"><ele>50.00000000000001</ele><time>2026-04-06T11:05:40.927Z</time></trkpt><trkpt lat="45.6314688" lon="11.5437015"><ele>50.0</ele><time>2026-04-06T11:05:42.928Z</time></trkpt><trkpt lat="45.6314841" lon="11.5438236"><ele>50.0</ele><time>2026-04-06T11:05:44.929Z</time></trkpt><trkpt lat="45.631493" lon="11.5439487"><ele>50.0</ele><time>2026-04-06T11:05:46.929Z</time></trkpt><trkpt lat="45.6314724" lon="11.544081"><ele>50.0</ele><time>2026-04-06T11:05:48.927Z</time></trkpt><trkpt lat="45.6314594" lon="11.5442266"><ele>50.0</ele><time>2026-04-06T11:05:50.933Z</time></trkpt><trkpt lat="45.6314594" lon="11.5443705"><ele>50.0</ele><time>2026-04-06T11:05:52.933Z</time></trkpt><trkpt lat="45.6314596" lon="11.5445144"><ele>50.16666666666667</ele><time>2026-04-06T11:05:54.93Z</time></trkpt><trkpt lat="45.6314484" lon="11.5446517"><ele>50.333333333333336</ele><time>2026-04-06T11:05:56.929Z</time></trkpt><trkpt lat="45.6314419" lon="11.5447725"><ele>50.5</ele><time>2026-04-06T11:05:58.93Z</time></trkpt><trkpt lat="45.6314281" lon="11.5448954"><ele>50.66666666666667</ele><time>2026-04-06T11:06:00.93Z</time></trkpt><trkpt lat="45.6314086" lon="11.5449937"><ele>50.833333333333336</ele><time>2026-04-06T11:06:02.933Z</time></trkpt><trkpt lat="45.6314007" lon="11.5451086"><ele>51.0</ele><time>2026-04-06T11:06:05.931Z</time></trkpt><trkpt lat="45.6314465" lon="11.5451961"><ele>51.0</ele><time>2026-04-06T11:06:16.931Z</time></trkpt><trkpt lat="45.6315064" lon="11.545233"><ele>51.0</ele><time>2026-04-06T11:06:20.932Z</time></trkpt><trkpt lat="45.6315692" lon="11.5452416"><ele>51.0</ele><time>2026-04-06T11:06:23.93Z</time></trkpt><trkpt lat="45.6316386" lon="11.5452606"><ele>51.0</ele><time>2026-04-06T11:06:27.929Z</time></trkpt><trkpt lat="45.6316989" lon="11.5452311"><ele>51.0</ele><time>2026-04-06T11:06:33.929Z</time></trkpt><trkpt lat="45.631687" lon="11.545108"><ele>51.0</ele><time>2026-04-06T11:06:36.93Z</time></trkpt><trkpt lat="45.6316794" lon="11.5449883"><ele>51.0</ele><time>2026-04-06T11:06:39.931Z</time></trkpt><trkpt lat="45.6316814" lon="11.5448841"><ele>51.0</ele><time>2026-04-06T11:06:44.93Z</time></trkpt></trkseg></trk></gpx>